<?xml version="1.0" encoding="UTF-8" standalone="no" ?>
<gpx xmlns="http://www.topografix.com/GPX/1/1" xmlns:xsi="http://www.w3.org/2001/XMLSchema-instance" xsi:schemaLocation="http://www.topografix.com/GPX/1/1 http://www.topografix.com/GPX/1/1/gpx.xsd" version="1.1" creator="VisuGPX - https://www.visugpx.com">
  <metadata>
    <name>Marche de la Bièvres 2012</name>
    <desc><![CDATA[Marche de la Bièvres 2012 - 22 Km]]></desc>
  </metadata>
  <trk>
    <name><![CDATA[13-MAI-12 18:42:53-2]]></name>
    <trkseg>
      <trkpt lat="48.76574" lon="2.16378">
        <ele>-69.56</ele>
        <time>2012-05-13T05:53:23Z</time>
      </trkpt>
      <trkpt lat="48.7657" lon="2.16382">
        <ele>-69.56</ele>
        <time>2012-05-13T05:53:24Z</time>
      </trkpt>
      <trkpt lat="48.76569" lon="2.16384">
        <ele>-64.27</ele>
        <time>2012-05-13T05:53:33Z</time>
      </trkpt>
      <trkpt lat="48.76569" lon="2.16383">
        <ele>-58.98</ele>
        <time>2012-05-13T05:53:34Z</time>
      </trkpt>
      <trkpt lat="48.76569" lon="2.16382">
        <ele>-53.7</ele>
        <time>2012-05-13T05:53:35Z</time>
      </trkpt>
      <trkpt lat="48.76569" lon="2.16382">
        <ele>-49.37</ele>
        <time>2012-05-13T05:53:36Z</time>
      </trkpt>
      <trkpt lat="48.76569" lon="2.16381">
        <ele>-44.56</ele>
        <time>2012-05-13T05:53:37Z</time>
      </trkpt>
      <trkpt lat="48.7657" lon="2.1638">
        <ele>-35.91</ele>
        <time>2012-05-13T05:53:38Z</time>
      </trkpt>
      <trkpt lat="48.7657" lon="2.1638">
        <ele>-35.91</ele>
        <time>2012-05-13T05:53:39Z</time>
      </trkpt>
      <trkpt lat="48.7657" lon="2.16379">
        <ele>-28.22</ele>
        <time>2012-05-13T05:53:40Z</time>
      </trkpt>
      <trkpt lat="48.7657" lon="2.16379">
        <ele>-24.38</ele>
        <time>2012-05-13T05:53:41Z</time>
      </trkpt>
      <trkpt lat="48.76571" lon="2.16378">
        <ele>-24.38</ele>
        <time>2012-05-13T05:53:42Z</time>
      </trkpt>
      <trkpt lat="48.76571" lon="2.16378">
        <ele>-21.01</ele>
        <time>2012-05-13T05:53:43Z</time>
      </trkpt>
      <trkpt lat="48.76571" lon="2.16377">
        <ele>-17.17</ele>
        <time>2012-05-13T05:53:44Z</time>
      </trkpt>
      <trkpt lat="48.76571" lon="2.16377">
        <ele>-13.8</ele>
        <time>2012-05-13T05:53:45Z</time>
      </trkpt>
      <trkpt lat="48.76571" lon="2.16377">
        <ele>-10.44</ele>
        <time>2012-05-13T05:53:46Z</time>
      </trkpt>
      <trkpt lat="48.7657" lon="2.16378">
        <ele>-7.55</ele>
        <time>2012-05-13T05:53:47Z</time>
      </trkpt>
      <trkpt lat="48.7657" lon="2.16378">
        <ele>-4.19</ele>
        <time>2012-05-13T05:53:48Z</time>
      </trkpt>
      <trkpt lat="48.7657" lon="2.16379">
        <ele>-1.3</ele>
        <time>2012-05-13T05:53:49Z</time>
      </trkpt>
      <trkpt lat="48.7657" lon="2.16379">
        <ele>4.46</ele>
        <time>2012-05-13T05:53:51Z</time>
      </trkpt>
      <trkpt lat="48.7657" lon="2.1638">
        <ele>9.75</ele>
        <time>2012-05-13T05:53:53Z</time>
      </trkpt>
      <trkpt lat="48.7657" lon="2.1638">
        <ele>14.56</ele>
        <time>2012-05-13T05:53:55Z</time>
      </trkpt>
      <trkpt lat="48.7657" lon="2.16379">
        <ele>19.36</ele>
        <time>2012-05-13T05:53:57Z</time>
      </trkpt>
      <trkpt lat="48.76571" lon="2.1638">
        <ele>23.69</ele>
        <time>2012-05-13T05:53:59Z</time>
      </trkpt>
      <trkpt lat="48.7657" lon="2.1638">
        <ele>28.02</ele>
        <time>2012-05-13T05:54:01Z</time>
      </trkpt>
      <trkpt lat="48.7657" lon="2.1638">
        <ele>31.38</ele>
        <time>2012-05-13T05:54:03Z</time>
      </trkpt>
      <trkpt lat="48.7657" lon="2.16379">
        <ele>35.23</ele>
        <time>2012-05-13T05:54:05Z</time>
      </trkpt>
      <trkpt lat="48.7657" lon="2.16379">
        <ele>38.59</ele>
        <time>2012-05-13T05:54:07Z</time>
      </trkpt>
      <trkpt lat="48.7657" lon="2.16379">
        <ele>41.47</ele>
        <time>2012-05-13T05:54:09Z</time>
      </trkpt>
      <trkpt lat="48.76571" lon="2.1638">
        <ele>45.8</ele>
        <time>2012-05-13T05:54:12Z</time>
      </trkpt>
      <trkpt lat="48.76571" lon="2.16383">
        <ele>49.65</ele>
        <time>2012-05-13T05:54:15Z</time>
      </trkpt>
      <trkpt lat="48.76571" lon="2.16386">
        <ele>53.49</ele>
        <time>2012-05-13T05:54:18Z</time>
      </trkpt>
      <trkpt lat="48.7657" lon="2.16388">
        <ele>55.41</ele>
        <time>2012-05-13T05:54:20Z</time>
      </trkpt>
      <trkpt lat="48.76569" lon="2.16392">
        <ele>58.78</ele>
        <time>2012-05-13T05:54:23Z</time>
      </trkpt>
      <trkpt lat="48.76567" lon="2.16397">
        <ele>62.14</ele>
        <time>2012-05-13T05:54:27Z</time>
      </trkpt>
      <trkpt lat="48.76566" lon="2.164">
        <ele>64.07</ele>
        <time>2012-05-13T05:54:30Z</time>
      </trkpt>
      <trkpt lat="48.76565" lon="2.16401">
        <ele>64.55</ele>
        <time>2012-05-13T05:54:31Z</time>
      </trkpt>
      <trkpt lat="48.76559" lon="2.16408">
        <ele>67.43</ele>
        <time>2012-05-13T05:54:36Z</time>
      </trkpt>
      <trkpt lat="48.76552" lon="2.16412">
        <ele>70.79</ele>
        <time>2012-05-13T05:54:43Z</time>
      </trkpt>
      <trkpt lat="48.76533" lon="2.16415">
        <ele>74.64</ele>
        <time>2012-05-13T05:54:58Z</time>
      </trkpt>
      <trkpt lat="48.76527" lon="2.16423">
        <ele>77.52</ele>
        <time>2012-05-13T05:55:11Z</time>
      </trkpt>
      <trkpt lat="48.76525" lon="2.16429">
        <ele>78.48</ele>
        <time>2012-05-13T05:55:15Z</time>
      </trkpt>
      <trkpt lat="48.7652" lon="2.16431">
        <ele>78.97</ele>
        <time>2012-05-13T05:55:19Z</time>
      </trkpt>
      <trkpt lat="48.76505" lon="2.16426">
        <ele>80.89</ele>
        <time>2012-05-13T05:55:33Z</time>
      </trkpt>
      <trkpt lat="48.76501" lon="2.16417">
        <ele>80.89</ele>
        <time>2012-05-13T05:55:41Z</time>
      </trkpt>
      <trkpt lat="48.76498" lon="2.16404">
        <ele>80.89</ele>
        <time>2012-05-13T05:55:49Z</time>
      </trkpt>
      <trkpt lat="48.76492" lon="2.16391">
        <ele>80.89</ele>
        <time>2012-05-13T05:55:59Z</time>
      </trkpt>
      <trkpt lat="48.76493" lon="2.16383">
        <ele>80.89</ele>
        <time>2012-05-13T05:56:03Z</time>
      </trkpt>
      <trkpt lat="48.76494" lon="2.16362">
        <ele>80.89</ele>
        <time>2012-05-13T05:56:14Z</time>
      </trkpt>
      <trkpt lat="48.76494" lon="2.16349">
        <ele>80.89</ele>
        <time>2012-05-13T05:56:21Z</time>
      </trkpt>
      <trkpt lat="48.76496" lon="2.16329">
        <ele>80.89</ele>
        <time>2012-05-13T05:56:31Z</time>
      </trkpt>
      <trkpt lat="48.76493" lon="2.163">
        <ele>80.89</ele>
        <time>2012-05-13T05:56:45Z</time>
      </trkpt>
      <trkpt lat="48.7649" lon="2.16265">
        <ele>80.89</ele>
        <time>2012-05-13T05:57:03Z</time>
      </trkpt>
      <trkpt lat="48.76491" lon="2.1624">
        <ele>80.89</ele>
        <time>2012-05-13T05:57:17Z</time>
      </trkpt>
      <trkpt lat="48.76491" lon="2.16217">
        <ele>80.89</ele>
        <time>2012-05-13T05:57:28Z</time>
      </trkpt>
      <trkpt lat="48.76491" lon="2.16183">
        <ele>80.41</ele>
        <time>2012-05-13T05:57:45Z</time>
      </trkpt>
      <trkpt lat="48.76493" lon="2.16152">
        <ele>80.41</ele>
        <time>2012-05-13T05:58:00Z</time>
      </trkpt>
      <trkpt lat="48.76496" lon="2.16118">
        <ele>80.41</ele>
        <time>2012-05-13T05:58:17Z</time>
      </trkpt>
      <trkpt lat="48.76498" lon="2.16098">
        <ele>80.41</ele>
        <time>2012-05-13T05:58:28Z</time>
      </trkpt>
      <trkpt lat="48.76476" lon="2.16102">
        <ele>80.41</ele>
        <time>2012-05-13T05:58:44Z</time>
      </trkpt>
      <trkpt lat="48.76456" lon="2.16116">
        <ele>81.37</ele>
        <time>2012-05-13T05:59:00Z</time>
      </trkpt>
      <trkpt lat="48.76439" lon="2.16119">
        <ele>81.37</ele>
        <time>2012-05-13T05:59:15Z</time>
      </trkpt>
      <trkpt lat="48.76436" lon="2.16119">
        <ele>81.37</ele>
        <time>2012-05-13T05:59:18Z</time>
      </trkpt>
      <trkpt lat="48.76422" lon="2.16107">
        <ele>82.33</ele>
        <time>2012-05-13T05:59:31Z</time>
      </trkpt>
      <trkpt lat="48.76407" lon="2.16082">
        <ele>83.77</ele>
        <time>2012-05-13T05:59:48Z</time>
      </trkpt>
      <trkpt lat="48.76392" lon="2.16054">
        <ele>85.69</ele>
        <time>2012-05-13T06:00:07Z</time>
      </trkpt>
      <trkpt lat="48.76379" lon="2.16035">
        <ele>87.14</ele>
        <time>2012-05-13T06:00:22Z</time>
      </trkpt>
      <trkpt lat="48.76373" lon="2.16029">
        <ele>87.62</ele>
        <time>2012-05-13T06:00:28Z</time>
      </trkpt>
      <trkpt lat="48.76372" lon="2.16018">
        <ele>88.1</ele>
        <time>2012-05-13T06:00:34Z</time>
      </trkpt>
      <trkpt lat="48.76374" lon="2.15982">
        <ele>89.54</ele>
        <time>2012-05-13T06:00:51Z</time>
      </trkpt>
      <trkpt lat="48.76375" lon="2.15946">
        <ele>90.5</ele>
        <time>2012-05-13T06:01:10Z</time>
      </trkpt>
      <trkpt lat="48.76374" lon="2.15912">
        <ele>92.42</ele>
        <time>2012-05-13T06:01:27Z</time>
      </trkpt>
      <trkpt lat="48.76374" lon="2.15874">
        <ele>93.87</ele>
        <time>2012-05-13T06:01:47Z</time>
      </trkpt>
      <trkpt lat="48.76372" lon="2.15847">
        <ele>95.31</ele>
        <time>2012-05-13T06:02:03Z</time>
      </trkpt>
      <trkpt lat="48.7637" lon="2.15822">
        <ele>97.71</ele>
        <time>2012-05-13T06:02:20Z</time>
      </trkpt>
      <trkpt lat="48.76368" lon="2.15786">
        <ele>101.08</ele>
        <time>2012-05-13T06:02:42Z</time>
      </trkpt>
      <trkpt lat="48.76367" lon="2.15756">
        <ele>103.96</ele>
        <time>2012-05-13T06:03:01Z</time>
      </trkpt>
      <trkpt lat="48.76365" lon="2.15728">
        <ele>107.32</ele>
        <time>2012-05-13T06:03:18Z</time>
      </trkpt>
      <trkpt lat="48.76364" lon="2.15694">
        <ele>109.73</ele>
        <time>2012-05-13T06:03:35Z</time>
      </trkpt>
      <trkpt lat="48.76361" lon="2.15663">
        <ele>112.61</ele>
        <time>2012-05-13T06:03:53Z</time>
      </trkpt>
      <trkpt lat="48.76349" lon="2.15627">
        <ele>115.5</ele>
        <time>2012-05-13T06:04:13Z</time>
      </trkpt>
      <trkpt lat="48.76342" lon="2.15598">
        <ele>117.9</ele>
        <time>2012-05-13T06:04:31Z</time>
      </trkpt>
      <trkpt lat="48.76333" lon="2.15569">
        <ele>120.78</ele>
        <time>2012-05-13T06:04:50Z</time>
      </trkpt>
      <trkpt lat="48.76323" lon="2.15541">
        <ele>123.67</ele>
        <time>2012-05-13T06:05:08Z</time>
      </trkpt>
      <trkpt lat="48.76321" lon="2.15514">
        <ele>126.07</ele>
        <time>2012-05-13T06:05:26Z</time>
      </trkpt>
      <trkpt lat="48.76328" lon="2.15476">
        <ele>128.95</ele>
        <time>2012-05-13T06:05:47Z</time>
      </trkpt>
      <trkpt lat="48.7633" lon="2.15434">
        <ele>131.36</ele>
        <time>2012-05-13T06:06:09Z</time>
      </trkpt>
      <trkpt lat="48.76332" lon="2.15394">
        <ele>132.8</ele>
        <time>2012-05-13T06:06:29Z</time>
      </trkpt>
      <trkpt lat="48.7633" lon="2.15357">
        <ele>135.2</ele>
        <time>2012-05-13T06:06:49Z</time>
      </trkpt>
      <trkpt lat="48.76329" lon="2.15321">
        <ele>136.16</ele>
        <time>2012-05-13T06:07:08Z</time>
      </trkpt>
      <trkpt lat="48.7633" lon="2.15289">
        <ele>136.64</ele>
        <time>2012-05-13T06:07:25Z</time>
      </trkpt>
      <trkpt lat="48.76329" lon="2.15256">
        <ele>137.61</ele>
        <time>2012-05-13T06:07:43Z</time>
      </trkpt>
      <trkpt lat="48.76325" lon="2.15216">
        <ele>138.09</ele>
        <time>2012-05-13T06:08:02Z</time>
      </trkpt>
      <trkpt lat="48.76326" lon="2.15177">
        <ele>138.09</ele>
        <time>2012-05-13T06:08:22Z</time>
      </trkpt>
      <trkpt lat="48.7633" lon="2.1514">
        <ele>138.57</ele>
        <time>2012-05-13T06:08:41Z</time>
      </trkpt>
      <trkpt lat="48.76335" lon="2.15098">
        <ele>138.57</ele>
        <time>2012-05-13T06:09:02Z</time>
      </trkpt>
      <trkpt lat="48.76341" lon="2.15064">
        <ele>139.05</ele>
        <time>2012-05-13T06:09:19Z</time>
      </trkpt>
      <trkpt lat="48.76338" lon="2.15021">
        <ele>139.53</ele>
        <time>2012-05-13T06:09:40Z</time>
      </trkpt>
      <trkpt lat="48.76335" lon="2.14979">
        <ele>139.53</ele>
        <time>2012-05-13T06:10:00Z</time>
      </trkpt>
      <trkpt lat="48.76335" lon="2.14947">
        <ele>139.53</ele>
        <time>2012-05-13T06:10:16Z</time>
      </trkpt>
      <trkpt lat="48.76334" lon="2.14909">
        <ele>139.05</ele>
        <time>2012-05-13T06:10:35Z</time>
      </trkpt>
      <trkpt lat="48.76335" lon="2.14865">
        <ele>139.05</ele>
        <time>2012-05-13T06:10:56Z</time>
      </trkpt>
      <trkpt lat="48.76345" lon="2.14827">
        <ele>138.09</ele>
        <time>2012-05-13T06:11:15Z</time>
      </trkpt>
      <trkpt lat="48.76355" lon="2.14792">
        <ele>136.16</ele>
        <time>2012-05-13T06:11:34Z</time>
      </trkpt>
      <trkpt lat="48.76361" lon="2.14773">
        <ele>135.2</ele>
        <time>2012-05-13T06:11:44Z</time>
      </trkpt>
      <trkpt lat="48.76359" lon="2.14757">
        <ele>134.72</ele>
        <time>2012-05-13T06:11:52Z</time>
      </trkpt>
      <trkpt lat="48.7636" lon="2.14747">
        <ele>134.72</ele>
        <time>2012-05-13T06:11:57Z</time>
      </trkpt>
      <trkpt lat="48.76357" lon="2.14707">
        <ele>134.72</ele>
        <time>2012-05-13T06:12:17Z</time>
      </trkpt>
      <trkpt lat="48.76359" lon="2.14691">
        <ele>134.72</ele>
        <time>2012-05-13T06:12:25Z</time>
      </trkpt>
      <trkpt lat="48.76365" lon="2.1465">
        <ele>134.72</ele>
        <time>2012-05-13T06:12:45Z</time>
      </trkpt>
      <trkpt lat="48.76375" lon="2.14623">
        <ele>135.68</ele>
        <time>2012-05-13T06:13:00Z</time>
      </trkpt>
      <trkpt lat="48.76389" lon="2.14596">
        <ele>136.16</ele>
        <time>2012-05-13T06:13:17Z</time>
      </trkpt>
      <trkpt lat="48.76401" lon="2.14567">
        <ele>136.64</ele>
        <time>2012-05-13T06:13:34Z</time>
      </trkpt>
      <trkpt lat="48.76417" lon="2.14538">
        <ele>137.13</ele>
        <time>2012-05-13T06:13:50Z</time>
      </trkpt>
      <trkpt lat="48.76429" lon="2.14506">
        <ele>138.09</ele>
        <time>2012-05-13T06:14:08Z</time>
      </trkpt>
      <trkpt lat="48.76434" lon="2.14469">
        <ele>138.57</ele>
        <time>2012-05-13T06:14:27Z</time>
      </trkpt>
      <trkpt lat="48.76439" lon="2.14431">
        <ele>138.57</ele>
        <time>2012-05-13T06:14:45Z</time>
      </trkpt>
      <trkpt lat="48.76446" lon="2.14391">
        <ele>139.05</ele>
        <time>2012-05-13T06:15:05Z</time>
      </trkpt>
      <trkpt lat="48.76445" lon="2.14353">
        <ele>139.53</ele>
        <time>2012-05-13T06:15:23Z</time>
      </trkpt>
      <trkpt lat="48.76443" lon="2.14316">
        <ele>140.01</ele>
        <time>2012-05-13T06:15:41Z</time>
      </trkpt>
      <trkpt lat="48.76441" lon="2.14283">
        <ele>140.49</ele>
        <time>2012-05-13T06:15:57Z</time>
      </trkpt>
      <trkpt lat="48.76445" lon="2.14252">
        <ele>140.97</ele>
        <time>2012-05-13T06:16:12Z</time>
      </trkpt>
      <trkpt lat="48.76447" lon="2.14215">
        <ele>141.45</ele>
        <time>2012-05-13T06:16:31Z</time>
      </trkpt>
      <trkpt lat="48.76449" lon="2.1418">
        <ele>141.93</ele>
        <time>2012-05-13T06:16:48Z</time>
      </trkpt>
      <trkpt lat="48.76444" lon="2.1414">
        <ele>141.93</ele>
        <time>2012-05-13T06:17:08Z</time>
      </trkpt>
      <trkpt lat="48.76443" lon="2.14126">
        <ele>141.93</ele>
        <time>2012-05-13T06:17:15Z</time>
      </trkpt>
      <trkpt lat="48.76441" lon="2.1411">
        <ele>141.93</ele>
        <time>2012-05-13T06:17:23Z</time>
      </trkpt>
      <trkpt lat="48.76445" lon="2.14073">
        <ele>141.93</ele>
        <time>2012-05-13T06:17:41Z</time>
      </trkpt>
      <trkpt lat="48.76459" lon="2.14046">
        <ele>141.93</ele>
        <time>2012-05-13T06:17:58Z</time>
      </trkpt>
      <trkpt lat="48.76478" lon="2.14019">
        <ele>141.93</ele>
        <time>2012-05-13T06:18:18Z</time>
      </trkpt>
      <trkpt lat="48.76489" lon="2.13983">
        <ele>141.93</ele>
        <time>2012-05-13T06:18:36Z</time>
      </trkpt>
      <trkpt lat="48.76501" lon="2.13952">
        <ele>141.93</ele>
        <time>2012-05-13T06:18:53Z</time>
      </trkpt>
      <trkpt lat="48.7651" lon="2.13923">
        <ele>141.93</ele>
        <time>2012-05-13T06:19:08Z</time>
      </trkpt>
      <trkpt lat="48.7651" lon="2.13922">
        <ele>141.93</ele>
        <time>2012-05-13T06:19:09Z</time>
      </trkpt>
      <trkpt lat="48.76528" lon="2.13932">
        <ele>141.93</ele>
        <time>2012-05-13T06:19:24Z</time>
      </trkpt>
      <trkpt lat="48.7655" lon="2.13948">
        <ele>141.93</ele>
        <time>2012-05-13T06:19:42Z</time>
      </trkpt>
      <trkpt lat="48.76569" lon="2.13967">
        <ele>140.49</ele>
        <time>2012-05-13T06:20:00Z</time>
      </trkpt>
      <trkpt lat="48.76591" lon="2.13978">
        <ele>139.53</ele>
        <time>2012-05-13T06:20:15Z</time>
      </trkpt>
      <trkpt lat="48.76614" lon="2.13966">
        <ele>139.05</ele>
        <time>2012-05-13T06:20:32Z</time>
      </trkpt>
      <trkpt lat="48.76622" lon="2.13959">
        <ele>139.05</ele>
        <time>2012-05-13T06:20:41Z</time>
      </trkpt>
      <trkpt lat="48.76625" lon="2.13955">
        <ele>139.05</ele>
        <time>2012-05-13T06:20:44Z</time>
      </trkpt>
      <trkpt lat="48.76634" lon="2.13952">
        <ele>139.05</ele>
        <time>2012-05-13T06:20:52Z</time>
      </trkpt>
      <trkpt lat="48.76646" lon="2.13951">
        <ele>139.05</ele>
        <time>2012-05-13T06:21:01Z</time>
      </trkpt>
      <trkpt lat="48.76653" lon="2.13943">
        <ele>139.05</ele>
        <time>2012-05-13T06:21:08Z</time>
      </trkpt>
      <trkpt lat="48.76667" lon="2.13924">
        <ele>139.05</ele>
        <time>2012-05-13T06:21:24Z</time>
      </trkpt>
      <trkpt lat="48.76673" lon="2.13914">
        <ele>139.05</ele>
        <time>2012-05-13T06:21:29Z</time>
      </trkpt>
      <trkpt lat="48.76678" lon="2.13903">
        <ele>139.05</ele>
        <time>2012-05-13T06:21:34Z</time>
      </trkpt>
      <trkpt lat="48.76697" lon="2.13871">
        <ele>139.05</ele>
        <time>2012-05-13T06:21:54Z</time>
      </trkpt>
      <trkpt lat="48.76699" lon="2.13868">
        <ele>139.05</ele>
        <time>2012-05-13T06:21:56Z</time>
      </trkpt>
      <trkpt lat="48.76715" lon="2.13841">
        <ele>139.05</ele>
        <time>2012-05-13T06:22:14Z</time>
      </trkpt>
      <trkpt lat="48.76733" lon="2.13808">
        <ele>139.05</ele>
        <time>2012-05-13T06:22:33Z</time>
      </trkpt>
      <trkpt lat="48.76747" lon="2.13783">
        <ele>138.57</ele>
        <time>2012-05-13T06:22:49Z</time>
      </trkpt>
      <trkpt lat="48.76749" lon="2.1378">
        <ele>138.57</ele>
        <time>2012-05-13T06:22:51Z</time>
      </trkpt>
      <trkpt lat="48.76768" lon="2.13747">
        <ele>137.61</ele>
        <time>2012-05-13T06:23:11Z</time>
      </trkpt>
      <trkpt lat="48.76783" lon="2.13726">
        <ele>137.61</ele>
        <time>2012-05-13T06:23:25Z</time>
      </trkpt>
      <trkpt lat="48.76799" lon="2.13707">
        <ele>137.61</ele>
        <time>2012-05-13T06:23:40Z</time>
      </trkpt>
      <trkpt lat="48.76814" lon="2.1368">
        <ele>137.61</ele>
        <time>2012-05-13T06:23:56Z</time>
      </trkpt>
      <trkpt lat="48.7683" lon="2.13652">
        <ele>139.05</ele>
        <time>2012-05-13T06:24:15Z</time>
      </trkpt>
      <trkpt lat="48.76842" lon="2.1363">
        <ele>139.05</ele>
        <time>2012-05-13T06:24:29Z</time>
      </trkpt>
      <trkpt lat="48.76858" lon="2.13609">
        <ele>139.05</ele>
        <time>2012-05-13T06:24:44Z</time>
      </trkpt>
      <trkpt lat="48.76873" lon="2.13585">
        <ele>139.05</ele>
        <time>2012-05-13T06:24:59Z</time>
      </trkpt>
      <trkpt lat="48.76884" lon="2.13554">
        <ele>139.05</ele>
        <time>2012-05-13T06:25:14Z</time>
      </trkpt>
      <trkpt lat="48.76884" lon="2.13521">
        <ele>139.05</ele>
        <time>2012-05-13T06:25:29Z</time>
      </trkpt>
      <trkpt lat="48.76877" lon="2.13482">
        <ele>139.53</ele>
        <time>2012-05-13T06:25:47Z</time>
      </trkpt>
      <trkpt lat="48.76867" lon="2.13456">
        <ele>140.01</ele>
        <time>2012-05-13T06:26:01Z</time>
      </trkpt>
      <trkpt lat="48.76858" lon="2.13423">
        <ele>140.49</ele>
        <time>2012-05-13T06:26:18Z</time>
      </trkpt>
      <trkpt lat="48.76837" lon="2.13396">
        <ele>140.97</ele>
        <time>2012-05-13T06:26:37Z</time>
      </trkpt>
      <trkpt lat="48.7682" lon="2.13376">
        <ele>141.45</ele>
        <time>2012-05-13T06:26:53Z</time>
      </trkpt>
      <trkpt lat="48.76809" lon="2.13364">
        <ele>141.45</ele>
        <time>2012-05-13T06:27:03Z</time>
      </trkpt>
      <trkpt lat="48.76794" lon="2.13348">
        <ele>141.45</ele>
        <time>2012-05-13T06:27:17Z</time>
      </trkpt>
      <trkpt lat="48.7679" lon="2.13342">
        <ele>141.45</ele>
        <time>2012-05-13T06:27:21Z</time>
      </trkpt>
      <trkpt lat="48.76773" lon="2.13325">
        <ele>141.45</ele>
        <time>2012-05-13T06:27:38Z</time>
      </trkpt>
      <trkpt lat="48.76749" lon="2.13302">
        <ele>141.93</ele>
        <time>2012-05-13T06:27:57Z</time>
      </trkpt>
      <trkpt lat="48.76743" lon="2.13296">
        <ele>141.93</ele>
        <time>2012-05-13T06:28:02Z</time>
      </trkpt>
      <trkpt lat="48.76741" lon="2.13278">
        <ele>141.93</ele>
        <time>2012-05-13T06:28:10Z</time>
      </trkpt>
      <trkpt lat="48.76753" lon="2.13241">
        <ele>141.93</ele>
        <time>2012-05-13T06:28:29Z</time>
      </trkpt>
      <trkpt lat="48.76763" lon="2.13208">
        <ele>140.01</ele>
        <time>2012-05-13T06:28:47Z</time>
      </trkpt>
      <trkpt lat="48.76766" lon="2.13198">
        <ele>139.05</ele>
        <time>2012-05-13T06:28:52Z</time>
      </trkpt>
      <trkpt lat="48.76773" lon="2.13166">
        <ele>137.13</ele>
        <time>2012-05-13T06:29:07Z</time>
      </trkpt>
      <trkpt lat="48.76776" lon="2.13154">
        <ele>135.68</ele>
        <time>2012-05-13T06:29:13Z</time>
      </trkpt>
      <trkpt lat="48.7678" lon="2.13142">
        <ele>135.2</ele>
        <time>2012-05-13T06:29:19Z</time>
      </trkpt>
      <trkpt lat="48.76788" lon="2.13115">
        <ele>135.2</ele>
        <time>2012-05-13T06:29:33Z</time>
      </trkpt>
      <trkpt lat="48.76794" lon="2.13095">
        <ele>136.64</ele>
        <time>2012-05-13T06:29:44Z</time>
      </trkpt>
      <trkpt lat="48.768" lon="2.13072">
        <ele>139.05</ele>
        <time>2012-05-13T06:29:58Z</time>
      </trkpt>
      <trkpt lat="48.76807" lon="2.13051">
        <ele>140.01</ele>
        <time>2012-05-13T06:30:09Z</time>
      </trkpt>
      <trkpt lat="48.76809" lon="2.13041">
        <ele>140.49</ele>
        <time>2012-05-13T06:30:14Z</time>
      </trkpt>
      <trkpt lat="48.76816" lon="2.13012">
        <ele>141.93</ele>
        <time>2012-05-13T06:30:29Z</time>
      </trkpt>
      <trkpt lat="48.76826" lon="2.12981">
        <ele>141.93</ele>
        <time>2012-05-13T06:30:46Z</time>
      </trkpt>
      <trkpt lat="48.76841" lon="2.12961">
        <ele>142.89</ele>
        <time>2012-05-13T06:31:01Z</time>
      </trkpt>
      <trkpt lat="48.76847" lon="2.12953">
        <ele>142.89</ele>
        <time>2012-05-13T06:31:07Z</time>
      </trkpt>
      <trkpt lat="48.76867" lon="2.12941">
        <ele>142.89</ele>
        <time>2012-05-13T06:31:24Z</time>
      </trkpt>
      <trkpt lat="48.76878" lon="2.12922">
        <ele>142.89</ele>
        <time>2012-05-13T06:31:40Z</time>
      </trkpt>
      <trkpt lat="48.76891" lon="2.1292">
        <ele>141.45</ele>
        <time>2012-05-13T06:31:52Z</time>
      </trkpt>
      <trkpt lat="48.76895" lon="2.12915">
        <ele>140.97</ele>
        <time>2012-05-13T06:31:56Z</time>
      </trkpt>
      <trkpt lat="48.76897" lon="2.12884">
        <ele>140.97</ele>
        <time>2012-05-13T06:32:12Z</time>
      </trkpt>
      <trkpt lat="48.76899" lon="2.12858">
        <ele>141.93</ele>
        <time>2012-05-13T06:32:26Z</time>
      </trkpt>
      <trkpt lat="48.76908" lon="2.12824">
        <ele>142.41</ele>
        <time>2012-05-13T06:32:43Z</time>
      </trkpt>
      <trkpt lat="48.76919" lon="2.12787">
        <ele>142.89</ele>
        <time>2012-05-13T06:33:01Z</time>
      </trkpt>
      <trkpt lat="48.76937" lon="2.12751">
        <ele>142.89</ele>
        <time>2012-05-13T06:33:21Z</time>
      </trkpt>
      <trkpt lat="48.76951" lon="2.12722">
        <ele>142.89</ele>
        <time>2012-05-13T06:33:38Z</time>
      </trkpt>
      <trkpt lat="48.76966" lon="2.12693">
        <ele>142.89</ele>
        <time>2012-05-13T06:33:55Z</time>
      </trkpt>
      <trkpt lat="48.76975" lon="2.12669">
        <ele>142.89</ele>
        <time>2012-05-13T06:34:09Z</time>
      </trkpt>
      <trkpt lat="48.7699" lon="2.12635">
        <ele>142.89</ele>
        <time>2012-05-13T06:34:28Z</time>
      </trkpt>
      <trkpt lat="48.77005" lon="2.12602">
        <ele>142.89</ele>
        <time>2012-05-13T06:34:47Z</time>
      </trkpt>
      <trkpt lat="48.77022" lon="2.12569">
        <ele>143.37</ele>
        <time>2012-05-13T06:35:05Z</time>
      </trkpt>
      <trkpt lat="48.77036" lon="2.12537">
        <ele>143.37</ele>
        <time>2012-05-13T06:35:23Z</time>
      </trkpt>
      <trkpt lat="48.77051" lon="2.12507">
        <ele>143.37</ele>
        <time>2012-05-13T06:35:40Z</time>
      </trkpt>
      <trkpt lat="48.77066" lon="2.12483">
        <ele>143.37</ele>
        <time>2012-05-13T06:35:55Z</time>
      </trkpt>
      <trkpt lat="48.77085" lon="2.12463">
        <ele>143.37</ele>
        <time>2012-05-13T06:36:12Z</time>
      </trkpt>
      <trkpt lat="48.77107" lon="2.12441">
        <ele>143.37</ele>
        <time>2012-05-13T06:36:30Z</time>
      </trkpt>
      <trkpt lat="48.77127" lon="2.12421">
        <ele>143.37</ele>
        <time>2012-05-13T06:36:47Z</time>
      </trkpt>
      <trkpt lat="48.77137" lon="2.12395">
        <ele>143.37</ele>
        <time>2012-05-13T06:37:01Z</time>
      </trkpt>
      <trkpt lat="48.7714" lon="2.12368">
        <ele>143.37</ele>
        <time>2012-05-13T06:37:15Z</time>
      </trkpt>
      <trkpt lat="48.7714" lon="2.12333">
        <ele>143.85</ele>
        <time>2012-05-13T06:37:32Z</time>
      </trkpt>
      <trkpt lat="48.77147" lon="2.12298">
        <ele>144.34</ele>
        <time>2012-05-13T06:37:49Z</time>
      </trkpt>
      <trkpt lat="48.77156" lon="2.12263">
        <ele>144.82</ele>
        <time>2012-05-13T06:38:07Z</time>
      </trkpt>
      <trkpt lat="48.77167" lon="2.12226">
        <ele>144.82</ele>
        <time>2012-05-13T06:38:26Z</time>
      </trkpt>
      <trkpt lat="48.7718" lon="2.12194">
        <ele>145.3</ele>
        <time>2012-05-13T06:38:44Z</time>
      </trkpt>
      <trkpt lat="48.77186" lon="2.12183">
        <ele>145.3</ele>
        <time>2012-05-13T06:38:51Z</time>
      </trkpt>
      <trkpt lat="48.77191" lon="2.12173">
        <ele>145.78</ele>
        <time>2012-05-13T06:38:57Z</time>
      </trkpt>
      <trkpt lat="48.77199" lon="2.12154">
        <ele>145.78</ele>
        <time>2012-05-13T06:39:08Z</time>
      </trkpt>
      <trkpt lat="48.772" lon="2.12146">
        <ele>146.26</ele>
        <time>2012-05-13T06:39:12Z</time>
      </trkpt>
      <trkpt lat="48.77207" lon="2.12118">
        <ele>146.74</ele>
        <time>2012-05-13T06:39:26Z</time>
      </trkpt>
      <trkpt lat="48.77211" lon="2.12104">
        <ele>146.74</ele>
        <time>2012-05-13T06:39:33Z</time>
      </trkpt>
      <trkpt lat="48.77224" lon="2.12068">
        <ele>147.22</ele>
        <time>2012-05-13T06:39:52Z</time>
      </trkpt>
      <trkpt lat="48.77234" lon="2.12036">
        <ele>147.7</ele>
        <time>2012-05-13T06:40:09Z</time>
      </trkpt>
      <trkpt lat="48.77241" lon="2.12001">
        <ele>147.7</ele>
        <time>2012-05-13T06:40:26Z</time>
      </trkpt>
      <trkpt lat="48.7725" lon="2.11972">
        <ele>148.18</ele>
        <time>2012-05-13T06:40:42Z</time>
      </trkpt>
      <trkpt lat="48.77258" lon="2.11942">
        <ele>148.66</ele>
        <time>2012-05-13T06:40:59Z</time>
      </trkpt>
      <trkpt lat="48.77259" lon="2.11935">
        <ele>148.66</ele>
        <time>2012-05-13T06:41:18Z</time>
      </trkpt>
      <trkpt lat="48.77259" lon="2.11928">
        <ele>148.66</ele>
        <time>2012-05-13T06:41:37Z</time>
      </trkpt>
      <trkpt lat="48.77272" lon="2.11895">
        <ele>148.66</ele>
        <time>2012-05-13T06:41:55Z</time>
      </trkpt>
      <trkpt lat="48.77273" lon="2.11893">
        <ele>148.66</ele>
        <time>2012-05-13T06:41:56Z</time>
      </trkpt>
      <trkpt lat="48.77281" lon="2.11861">
        <ele>148.66</ele>
        <time>2012-05-13T06:42:13Z</time>
      </trkpt>
      <trkpt lat="48.77287" lon="2.11844">
        <ele>148.66</ele>
        <time>2012-05-13T06:42:22Z</time>
      </trkpt>
      <trkpt lat="48.77289" lon="2.11839">
        <ele>148.66</ele>
        <time>2012-05-13T06:42:25Z</time>
      </trkpt>
      <trkpt lat="48.77293" lon="2.1183">
        <ele>147.7</ele>
        <time>2012-05-13T06:42:30Z</time>
      </trkpt>
      <trkpt lat="48.77304" lon="2.11829">
        <ele>146.26</ele>
        <time>2012-05-13T06:42:41Z</time>
      </trkpt>
      <trkpt lat="48.7732" lon="2.11835">
        <ele>142.41</ele>
        <time>2012-05-13T06:42:57Z</time>
      </trkpt>
      <trkpt lat="48.77325" lon="2.11836">
        <ele>139.53</ele>
        <time>2012-05-13T06:43:01Z</time>
      </trkpt>
      <trkpt lat="48.77342" lon="2.11842">
        <ele>137.61</ele>
        <time>2012-05-13T06:43:14Z</time>
      </trkpt>
      <trkpt lat="48.77361" lon="2.1185">
        <ele>135.2</ele>
        <time>2012-05-13T06:43:30Z</time>
      </trkpt>
      <trkpt lat="48.77376" lon="2.11855">
        <ele>131.84</ele>
        <time>2012-05-13T06:43:44Z</time>
      </trkpt>
      <trkpt lat="48.77397" lon="2.11863">
        <ele>128.95</ele>
        <time>2012-05-13T06:43:58Z</time>
      </trkpt>
      <trkpt lat="48.77415" lon="2.11871">
        <ele>126.07</ele>
        <time>2012-05-13T06:44:10Z</time>
      </trkpt>
      <trkpt lat="48.77437" lon="2.11876">
        <ele>123.67</ele>
        <time>2012-05-13T06:44:24Z</time>
      </trkpt>
      <trkpt lat="48.77458" lon="2.11886">
        <ele>120.3</ele>
        <time>2012-05-13T06:44:39Z</time>
      </trkpt>
      <trkpt lat="48.77464" lon="2.11883">
        <ele>118.86</ele>
        <time>2012-05-13T06:44:52Z</time>
      </trkpt>
      <trkpt lat="48.77475" lon="2.11853">
        <ele>118.38</ele>
        <time>2012-05-13T06:45:07Z</time>
      </trkpt>
      <trkpt lat="48.77478" lon="2.11843">
        <ele>118.38</ele>
        <time>2012-05-13T06:45:13Z</time>
      </trkpt>
      <trkpt lat="48.7748" lon="2.11833">
        <ele>117.9</ele>
        <time>2012-05-13T06:45:18Z</time>
      </trkpt>
      <trkpt lat="48.7749" lon="2.11803">
        <ele>117.9</ele>
        <time>2012-05-13T06:45:33Z</time>
      </trkpt>
      <trkpt lat="48.77504" lon="2.11773">
        <ele>117.9</ele>
        <time>2012-05-13T06:45:47Z</time>
      </trkpt>
      <trkpt lat="48.77511" lon="2.11753">
        <ele>117.9</ele>
        <time>2012-05-13T06:45:58Z</time>
      </trkpt>
      <trkpt lat="48.77514" lon="2.11739">
        <ele>117.9</ele>
        <time>2012-05-13T06:46:04Z</time>
      </trkpt>
      <trkpt lat="48.77526" lon="2.11704">
        <ele>117.42</ele>
        <time>2012-05-13T06:46:20Z</time>
      </trkpt>
      <trkpt lat="48.77532" lon="2.11688">
        <ele>116.94</ele>
        <time>2012-05-13T06:46:29Z</time>
      </trkpt>
      <trkpt lat="48.77532" lon="2.11675">
        <ele>115.98</ele>
        <time>2012-05-13T06:46:36Z</time>
      </trkpt>
      <trkpt lat="48.77534" lon="2.11668">
        <ele>115.98</ele>
        <time>2012-05-13T06:46:40Z</time>
      </trkpt>
      <trkpt lat="48.77532" lon="2.11632">
        <ele>115.98</ele>
        <time>2012-05-13T06:46:57Z</time>
      </trkpt>
      <trkpt lat="48.77531" lon="2.11595">
        <ele>115.98</ele>
        <time>2012-05-13T06:47:14Z</time>
      </trkpt>
      <trkpt lat="48.7753" lon="2.11572">
        <ele>115.5</ele>
        <time>2012-05-13T06:47:25Z</time>
      </trkpt>
      <trkpt lat="48.7753" lon="2.11556">
        <ele>115.5</ele>
        <time>2012-05-13T06:47:32Z</time>
      </trkpt>
      <trkpt lat="48.77529" lon="2.11521">
        <ele>115.98</ele>
        <time>2012-05-13T06:47:49Z</time>
      </trkpt>
      <trkpt lat="48.77523" lon="2.1149">
        <ele>115.5</ele>
        <time>2012-05-13T06:48:05Z</time>
      </trkpt>
      <trkpt lat="48.77522" lon="2.11486">
        <ele>115.5</ele>
        <time>2012-05-13T06:48:07Z</time>
      </trkpt>
      <trkpt lat="48.7752" lon="2.11478">
        <ele>115.01</ele>
        <time>2012-05-13T06:48:11Z</time>
      </trkpt>
      <trkpt lat="48.77516" lon="2.11446">
        <ele>115.01</ele>
        <time>2012-05-13T06:48:27Z</time>
      </trkpt>
      <trkpt lat="48.77515" lon="2.11436">
        <ele>115.01</ele>
        <time>2012-05-13T06:48:32Z</time>
      </trkpt>
      <trkpt lat="48.77513" lon="2.11418">
        <ele>115.01</ele>
        <time>2012-05-13T06:48:41Z</time>
      </trkpt>
      <trkpt lat="48.77512" lon="2.11392">
        <ele>115.98</ele>
        <time>2012-05-13T06:48:55Z</time>
      </trkpt>
      <trkpt lat="48.77507" lon="2.11362">
        <ele>115.98</ele>
        <time>2012-05-13T06:49:10Z</time>
      </trkpt>
      <trkpt lat="48.77505" lon="2.11352">
        <ele>115.98</ele>
        <time>2012-05-13T06:49:15Z</time>
      </trkpt>
      <trkpt lat="48.775" lon="2.11321">
        <ele>115.5</ele>
        <time>2012-05-13T06:49:31Z</time>
      </trkpt>
      <trkpt lat="48.77499" lon="2.113">
        <ele>116.94</ele>
        <time>2012-05-13T06:49:42Z</time>
      </trkpt>
      <trkpt lat="48.77497" lon="2.11275">
        <ele>119.34</ele>
        <time>2012-05-13T06:49:56Z</time>
      </trkpt>
      <trkpt lat="48.77491" lon="2.11243">
        <ele>120.78</ele>
        <time>2012-05-13T06:50:14Z</time>
      </trkpt>
      <trkpt lat="48.77489" lon="2.11237">
        <ele>121.26</ele>
        <time>2012-05-13T06:50:17Z</time>
      </trkpt>
      <trkpt lat="48.77484" lon="2.11205">
        <ele>122.71</ele>
        <time>2012-05-13T06:50:34Z</time>
      </trkpt>
      <trkpt lat="48.77478" lon="2.11171">
        <ele>123.19</ele>
        <time>2012-05-13T06:50:51Z</time>
      </trkpt>
      <trkpt lat="48.77466" lon="2.11171">
        <ele>124.15</ele>
        <time>2012-05-13T06:51:06Z</time>
      </trkpt>
      <trkpt lat="48.7746" lon="2.11173">
        <ele>125.59</ele>
        <time>2012-05-13T06:51:19Z</time>
      </trkpt>
      <trkpt lat="48.77448" lon="2.11178">
        <ele>127.51</ele>
        <time>2012-05-13T06:51:36Z</time>
      </trkpt>
      <trkpt lat="48.77445" lon="2.11194">
        <ele>129.92</ele>
        <time>2012-05-13T06:51:49Z</time>
      </trkpt>
      <trkpt lat="48.77442" lon="2.11205">
        <ele>131.84</ele>
        <time>2012-05-13T06:51:57Z</time>
      </trkpt>
      <trkpt lat="48.77433" lon="2.11214">
        <ele>134.72</ele>
        <time>2012-05-13T06:52:10Z</time>
      </trkpt>
      <trkpt lat="48.77425" lon="2.11207">
        <ele>134.72</ele>
        <time>2012-05-13T06:52:18Z</time>
      </trkpt>
      <trkpt lat="48.77415" lon="2.11187">
        <ele>135.2</ele>
        <time>2012-05-13T06:52:33Z</time>
      </trkpt>
      <trkpt lat="48.77409" lon="2.11167">
        <ele>135.68</ele>
        <time>2012-05-13T06:52:49Z</time>
      </trkpt>
      <trkpt lat="48.7741" lon="2.11132">
        <ele>135.68</ele>
        <time>2012-05-13T06:53:07Z</time>
      </trkpt>
      <trkpt lat="48.7741" lon="2.1113">
        <ele>135.68</ele>
        <time>2012-05-13T06:53:08Z</time>
      </trkpt>
      <trkpt lat="48.7741" lon="2.11112">
        <ele>135.68</ele>
        <time>2012-05-13T06:53:16Z</time>
      </trkpt>
      <trkpt lat="48.77404" lon="2.11096">
        <ele>135.68</ele>
        <time>2012-05-13T06:53:25Z</time>
      </trkpt>
      <trkpt lat="48.77398" lon="2.11086">
        <ele>135.68</ele>
        <time>2012-05-13T06:53:36Z</time>
      </trkpt>
      <trkpt lat="48.7739" lon="2.11071">
        <ele>135.68</ele>
        <time>2012-05-13T06:53:51Z</time>
      </trkpt>
      <trkpt lat="48.77378" lon="2.1105">
        <ele>135.68</ele>
        <time>2012-05-13T06:54:06Z</time>
      </trkpt>
      <trkpt lat="48.77377" lon="2.11047">
        <ele>135.68</ele>
        <time>2012-05-13T06:54:08Z</time>
      </trkpt>
      <trkpt lat="48.77367" lon="2.11022">
        <ele>135.68</ele>
        <time>2012-05-13T06:54:22Z</time>
      </trkpt>
      <trkpt lat="48.77363" lon="2.10996">
        <ele>134.24</ele>
        <time>2012-05-13T06:54:38Z</time>
      </trkpt>
      <trkpt lat="48.77356" lon="2.10971">
        <ele>134.24</ele>
        <time>2012-05-13T06:54:53Z</time>
      </trkpt>
      <trkpt lat="48.77352" lon="2.10947">
        <ele>134.24</ele>
        <time>2012-05-13T06:55:06Z</time>
      </trkpt>
      <trkpt lat="48.77352" lon="2.10919">
        <ele>133.28</ele>
        <time>2012-05-13T06:55:21Z</time>
      </trkpt>
      <trkpt lat="48.77347" lon="2.10906">
        <ele>133.28</ele>
        <time>2012-05-13T06:55:28Z</time>
      </trkpt>
      <trkpt lat="48.77346" lon="2.10896">
        <ele>133.28</ele>
        <time>2012-05-13T06:55:35Z</time>
      </trkpt>
      <trkpt lat="48.7734" lon="2.10878">
        <ele>133.28</ele>
        <time>2012-05-13T06:55:46Z</time>
      </trkpt>
      <trkpt lat="48.77329" lon="2.10854">
        <ele>132.32</ele>
        <time>2012-05-13T06:56:02Z</time>
      </trkpt>
      <trkpt lat="48.7732" lon="2.10838">
        <ele>132.32</ele>
        <time>2012-05-13T06:56:20Z</time>
      </trkpt>
      <trkpt lat="48.77312" lon="2.10829">
        <ele>131.84</ele>
        <time>2012-05-13T06:56:32Z</time>
      </trkpt>
      <trkpt lat="48.7731" lon="2.10826">
        <ele>131.84</ele>
        <time>2012-05-13T06:56:35Z</time>
      </trkpt>
      <trkpt lat="48.77294" lon="2.10801">
        <ele>131.36</ele>
        <time>2012-05-13T06:56:52Z</time>
      </trkpt>
      <trkpt lat="48.77284" lon="2.10781">
        <ele>130.88</ele>
        <time>2012-05-13T06:57:07Z</time>
      </trkpt>
      <trkpt lat="48.77275" lon="2.10746">
        <ele>130.4</ele>
        <time>2012-05-13T06:57:26Z</time>
      </trkpt>
      <trkpt lat="48.77275" lon="2.1073">
        <ele>130.4</ele>
        <time>2012-05-13T06:57:37Z</time>
      </trkpt>
      <trkpt lat="48.77271" lon="2.10712">
        <ele>130.88</ele>
        <time>2012-05-13T06:57:53Z</time>
      </trkpt>
      <trkpt lat="48.77267" lon="2.10694">
        <ele>131.84</ele>
        <time>2012-05-13T06:58:07Z</time>
      </trkpt>
      <trkpt lat="48.77262" lon="2.10667">
        <ele>131.84</ele>
        <time>2012-05-13T06:58:22Z</time>
      </trkpt>
      <trkpt lat="48.77262" lon="2.10645">
        <ele>132.8</ele>
        <time>2012-05-13T06:58:37Z</time>
      </trkpt>
      <trkpt lat="48.77261" lon="2.10623">
        <ele>133.28</ele>
        <time>2012-05-13T06:58:52Z</time>
      </trkpt>
      <trkpt lat="48.77257" lon="2.10602">
        <ele>133.28</ele>
        <time>2012-05-13T06:59:04Z</time>
      </trkpt>
      <trkpt lat="48.77253" lon="2.10578">
        <ele>134.24</ele>
        <time>2012-05-13T06:59:19Z</time>
      </trkpt>
      <trkpt lat="48.77243" lon="2.1056">
        <ele>134.72</ele>
        <time>2012-05-13T06:59:33Z</time>
      </trkpt>
      <trkpt lat="48.77238" lon="2.10547">
        <ele>135.68</ele>
        <time>2012-05-13T06:59:43Z</time>
      </trkpt>
      <trkpt lat="48.77233" lon="2.10526">
        <ele>136.16</ele>
        <time>2012-05-13T06:59:56Z</time>
      </trkpt>
      <trkpt lat="48.77228" lon="2.10508">
        <ele>136.16</ele>
        <time>2012-05-13T07:00:09Z</time>
      </trkpt>
      <trkpt lat="48.77227" lon="2.10505">
        <ele>136.16</ele>
        <time>2012-05-13T07:00:11Z</time>
      </trkpt>
      <trkpt lat="48.77225" lon="2.10491">
        <ele>136.64</ele>
        <time>2012-05-13T07:00:19Z</time>
      </trkpt>
      <trkpt lat="48.77224" lon="2.10483">
        <ele>136.64</ele>
        <time>2012-05-13T07:00:24Z</time>
      </trkpt>
      <trkpt lat="48.77216" lon="2.10488">
        <ele>138.57</ele>
        <time>2012-05-13T07:00:37Z</time>
      </trkpt>
      <trkpt lat="48.77213" lon="2.10485">
        <ele>139.53</ele>
        <time>2012-05-13T07:00:43Z</time>
      </trkpt>
      <trkpt lat="48.77205" lon="2.10461">
        <ele>140.49</ele>
        <time>2012-05-13T07:00:57Z</time>
      </trkpt>
      <trkpt lat="48.77205" lon="2.10429">
        <ele>140.49</ele>
        <time>2012-05-13T07:01:11Z</time>
      </trkpt>
      <trkpt lat="48.77205" lon="2.10426">
        <ele>140.49</ele>
        <time>2012-05-13T07:01:12Z</time>
      </trkpt>
      <trkpt lat="48.77209" lon="2.10412">
        <ele>140.49</ele>
        <time>2012-05-13T07:01:19Z</time>
      </trkpt>
      <trkpt lat="48.77207" lon="2.10396">
        <ele>140.49</ele>
        <time>2012-05-13T07:01:28Z</time>
      </trkpt>
      <trkpt lat="48.7721" lon="2.10387">
        <ele>140.49</ele>
        <time>2012-05-13T07:01:33Z</time>
      </trkpt>
      <trkpt lat="48.77209" lon="2.10357">
        <ele>139.53</ele>
        <time>2012-05-13T07:01:47Z</time>
      </trkpt>
      <trkpt lat="48.77209" lon="2.10346">
        <ele>138.57</ele>
        <time>2012-05-13T07:01:53Z</time>
      </trkpt>
      <trkpt lat="48.77208" lon="2.10339">
        <ele>138.57</ele>
        <time>2012-05-13T07:01:57Z</time>
      </trkpt>
      <trkpt lat="48.77211" lon="2.10324">
        <ele>138.57</ele>
        <time>2012-05-13T07:02:06Z</time>
      </trkpt>
      <trkpt lat="48.77216" lon="2.10303">
        <ele>138.57</ele>
        <time>2012-05-13T07:02:17Z</time>
      </trkpt>
      <trkpt lat="48.77224" lon="2.10274">
        <ele>138.09</ele>
        <time>2012-05-13T07:02:32Z</time>
      </trkpt>
      <trkpt lat="48.7723" lon="2.10246">
        <ele>137.61</ele>
        <time>2012-05-13T07:02:47Z</time>
      </trkpt>
      <trkpt lat="48.77231" lon="2.10238">
        <ele>137.61</ele>
        <time>2012-05-13T07:02:51Z</time>
      </trkpt>
      <trkpt lat="48.77232" lon="2.10218">
        <ele>137.61</ele>
        <time>2012-05-13T07:03:01Z</time>
      </trkpt>
      <trkpt lat="48.7724" lon="2.10186">
        <ele>137.61</ele>
        <time>2012-05-13T07:03:18Z</time>
      </trkpt>
      <trkpt lat="48.77242" lon="2.10179">
        <ele>137.61</ele>
        <time>2012-05-13T07:03:22Z</time>
      </trkpt>
      <trkpt lat="48.77247" lon="2.10156">
        <ele>137.61</ele>
        <time>2012-05-13T07:03:36Z</time>
      </trkpt>
      <trkpt lat="48.77254" lon="2.10135">
        <ele>137.61</ele>
        <time>2012-05-13T07:03:52Z</time>
      </trkpt>
      <trkpt lat="48.77258" lon="2.10131">
        <ele>137.61</ele>
        <time>2012-05-13T07:03:55Z</time>
      </trkpt>
      <trkpt lat="48.77266" lon="2.10129">
        <ele>137.61</ele>
        <time>2012-05-13T07:04:01Z</time>
      </trkpt>
      <trkpt lat="48.77287" lon="2.10124">
        <ele>137.61</ele>
        <time>2012-05-13T07:04:17Z</time>
      </trkpt>
      <trkpt lat="48.77295" lon="2.10111">
        <ele>137.61</ele>
        <time>2012-05-13T07:04:27Z</time>
      </trkpt>
      <trkpt lat="48.77296" lon="2.10095">
        <ele>137.13</ele>
        <time>2012-05-13T07:04:34Z</time>
      </trkpt>
      <trkpt lat="48.77299" lon="2.1009">
        <ele>137.13</ele>
        <time>2012-05-13T07:04:37Z</time>
      </trkpt>
      <trkpt lat="48.77313" lon="2.10069">
        <ele>136.64</ele>
        <time>2012-05-13T07:04:55Z</time>
      </trkpt>
      <trkpt lat="48.77317" lon="2.10067">
        <ele>136.64</ele>
        <time>2012-05-13T07:04:59Z</time>
      </trkpt>
      <trkpt lat="48.7733" lon="2.10062">
        <ele>136.64</ele>
        <time>2012-05-13T07:05:08Z</time>
      </trkpt>
      <trkpt lat="48.77343" lon="2.10041">
        <ele>136.16</ele>
        <time>2012-05-13T07:05:24Z</time>
      </trkpt>
      <trkpt lat="48.77344" lon="2.10038">
        <ele>136.16</ele>
        <time>2012-05-13T07:05:26Z</time>
      </trkpt>
      <trkpt lat="48.77352" lon="2.10011">
        <ele>135.68</ele>
        <time>2012-05-13T07:05:41Z</time>
      </trkpt>
      <trkpt lat="48.77356" lon="2.10001">
        <ele>135.2</ele>
        <time>2012-05-13T07:05:47Z</time>
      </trkpt>
      <trkpt lat="48.77366" lon="2.09985">
        <ele>135.2</ele>
        <time>2012-05-13T07:06:03Z</time>
      </trkpt>
      <trkpt lat="48.77382" lon="2.09964">
        <ele>135.2</ele>
        <time>2012-05-13T07:06:19Z</time>
      </trkpt>
      <trkpt lat="48.77388" lon="2.09954">
        <ele>135.2</ele>
        <time>2012-05-13T07:06:26Z</time>
      </trkpt>
      <trkpt lat="48.77389" lon="2.09933">
        <ele>134.72</ele>
        <time>2012-05-13T07:06:39Z</time>
      </trkpt>
      <trkpt lat="48.77389" lon="2.09918">
        <ele>134.72</ele>
        <time>2012-05-13T07:06:46Z</time>
      </trkpt>
      <trkpt lat="48.77391" lon="2.09897">
        <ele>134.72</ele>
        <time>2012-05-13T07:06:54Z</time>
      </trkpt>
      <trkpt lat="48.77406" lon="2.09869">
        <ele>134.24</ele>
        <time>2012-05-13T07:07:11Z</time>
      </trkpt>
      <trkpt lat="48.77409" lon="2.09864">
        <ele>134.24</ele>
        <time>2012-05-13T07:07:14Z</time>
      </trkpt>
      <trkpt lat="48.77422" lon="2.0985">
        <ele>133.28</ele>
        <time>2012-05-13T07:07:31Z</time>
      </trkpt>
      <trkpt lat="48.77424" lon="2.09849">
        <ele>133.28</ele>
        <time>2012-05-13T07:07:33Z</time>
      </trkpt>
      <trkpt lat="48.77428" lon="2.09845">
        <ele>132.8</ele>
        <time>2012-05-13T07:07:37Z</time>
      </trkpt>
      <trkpt lat="48.77434" lon="2.09836">
        <ele>132.32</ele>
        <time>2012-05-13T07:07:44Z</time>
      </trkpt>
      <trkpt lat="48.77446" lon="2.09815">
        <ele>131.84</ele>
        <time>2012-05-13T07:08:02Z</time>
      </trkpt>
      <trkpt lat="48.77458" lon="2.09803">
        <ele>130.88</ele>
        <time>2012-05-13T07:08:16Z</time>
      </trkpt>
      <trkpt lat="48.77463" lon="2.098">
        <ele>130.88</ele>
        <time>2012-05-13T07:08:21Z</time>
      </trkpt>
      <trkpt lat="48.77483" lon="2.09781">
        <ele>129.43</ele>
        <time>2012-05-13T07:08:39Z</time>
      </trkpt>
      <trkpt lat="48.77508" lon="2.0976">
        <ele>128.95</ele>
        <time>2012-05-13T07:08:56Z</time>
      </trkpt>
      <trkpt lat="48.77531" lon="2.09746">
        <ele>128.95</ele>
        <time>2012-05-13T07:09:12Z</time>
      </trkpt>
      <trkpt lat="48.77553" lon="2.09736">
        <ele>128.95</ele>
        <time>2012-05-13T07:09:28Z</time>
      </trkpt>
      <trkpt lat="48.77574" lon="2.09739">
        <ele>128.47</ele>
        <time>2012-05-13T07:09:44Z</time>
      </trkpt>
      <trkpt lat="48.77593" lon="2.09745">
        <ele>127.99</ele>
        <time>2012-05-13T07:10:00Z</time>
      </trkpt>
      <trkpt lat="48.77609" lon="2.09745">
        <ele>127.51</ele>
        <time>2012-05-13T07:10:14Z</time>
      </trkpt>
      <trkpt lat="48.77626" lon="2.09726">
        <ele>127.03</ele>
        <time>2012-05-13T07:10:31Z</time>
      </trkpt>
      <trkpt lat="48.77638" lon="2.09719">
        <ele>125.59</ele>
        <time>2012-05-13T07:10:46Z</time>
      </trkpt>
      <trkpt lat="48.77641" lon="2.0972">
        <ele>125.11</ele>
        <time>2012-05-13T07:10:49Z</time>
      </trkpt>
      <trkpt lat="48.77659" lon="2.09725">
        <ele>122.22</ele>
        <time>2012-05-13T07:11:03Z</time>
      </trkpt>
      <trkpt lat="48.77677" lon="2.09727">
        <ele>120.78</ele>
        <time>2012-05-13T07:11:18Z</time>
      </trkpt>
      <trkpt lat="48.77697" lon="2.09723">
        <ele>119.82</ele>
        <time>2012-05-13T07:11:35Z</time>
      </trkpt>
      <trkpt lat="48.77725" lon="2.09704">
        <ele>119.34</ele>
        <time>2012-05-13T07:11:53Z</time>
      </trkpt>
      <trkpt lat="48.77727" lon="2.09703">
        <ele>119.34</ele>
        <time>2012-05-13T07:11:54Z</time>
      </trkpt>
      <trkpt lat="48.77753" lon="2.09692">
        <ele>118.86</ele>
        <time>2012-05-13T07:12:12Z</time>
      </trkpt>
      <trkpt lat="48.77771" lon="2.09681">
        <ele>118.38</ele>
        <time>2012-05-13T07:12:27Z</time>
      </trkpt>
      <trkpt lat="48.7778" lon="2.09673">
        <ele>118.38</ele>
        <time>2012-05-13T07:12:35Z</time>
      </trkpt>
      <trkpt lat="48.77788" lon="2.0964">
        <ele>118.38</ele>
        <time>2012-05-13T07:12:51Z</time>
      </trkpt>
      <trkpt lat="48.77792" lon="2.09614">
        <ele>119.82</ele>
        <time>2012-05-13T07:13:04Z</time>
      </trkpt>
      <trkpt lat="48.77791" lon="2.09607">
        <ele>119.82</ele>
        <time>2012-05-13T07:13:08Z</time>
      </trkpt>
      <trkpt lat="48.77795" lon="2.09569">
        <ele>119.82</ele>
        <time>2012-05-13T07:13:25Z</time>
      </trkpt>
      <trkpt lat="48.77798" lon="2.09558">
        <ele>120.3</ele>
        <time>2012-05-13T07:13:31Z</time>
      </trkpt>
      <trkpt lat="48.77819" lon="2.09544">
        <ele>120.3</ele>
        <time>2012-05-13T07:13:48Z</time>
      </trkpt>
      <trkpt lat="48.77831" lon="2.09546">
        <ele>121.26</ele>
        <time>2012-05-13T07:13:57Z</time>
      </trkpt>
      <trkpt lat="48.77833" lon="2.09547">
        <ele>121.74</ele>
        <time>2012-05-13T07:13:59Z</time>
      </trkpt>
      <trkpt lat="48.77856" lon="2.09552">
        <ele>122.22</ele>
        <time>2012-05-13T07:14:16Z</time>
      </trkpt>
      <trkpt lat="48.77879" lon="2.09556">
        <ele>122.22</ele>
        <time>2012-05-13T07:14:32Z</time>
      </trkpt>
      <trkpt lat="48.77889" lon="2.09555">
        <ele>122.22</ele>
        <time>2012-05-13T07:14:41Z</time>
      </trkpt>
      <trkpt lat="48.77905" lon="2.0956">
        <ele>122.22</ele>
        <time>2012-05-13T07:14:57Z</time>
      </trkpt>
      <trkpt lat="48.77921" lon="2.09564">
        <ele>121.26</ele>
        <time>2012-05-13T07:15:10Z</time>
      </trkpt>
      <trkpt lat="48.77937" lon="2.09562">
        <ele>121.26</ele>
        <time>2012-05-13T07:15:23Z</time>
      </trkpt>
      <trkpt lat="48.77953" lon="2.09572">
        <ele>121.26</ele>
        <time>2012-05-13T07:15:38Z</time>
      </trkpt>
      <trkpt lat="48.77965" lon="2.09576">
        <ele>121.26</ele>
        <time>2012-05-13T07:15:47Z</time>
      </trkpt>
      <trkpt lat="48.77984" lon="2.09574">
        <ele>121.26</ele>
        <time>2012-05-13T07:16:03Z</time>
      </trkpt>
      <trkpt lat="48.78018" lon="2.09569">
        <ele>121.26</ele>
        <time>2012-05-13T07:16:22Z</time>
      </trkpt>
      <trkpt lat="48.78022" lon="2.09569">
        <ele>122.22</ele>
        <time>2012-05-13T07:16:24Z</time>
      </trkpt>
      <trkpt lat="48.7803" lon="2.09586">
        <ele>122.22</ele>
        <time>2012-05-13T07:16:37Z</time>
      </trkpt>
      <trkpt lat="48.78032" lon="2.09596">
        <ele>122.22</ele>
        <time>2012-05-13T07:16:43Z</time>
      </trkpt>
      <trkpt lat="48.78037" lon="2.09625">
        <ele>119.34</ele>
        <time>2012-05-13T07:17:03Z</time>
      </trkpt>
      <trkpt lat="48.78033" lon="2.0965">
        <ele>118.86</ele>
        <time>2012-05-13T07:17:12Z</time>
      </trkpt>
      <trkpt lat="48.7804" lon="2.09684">
        <ele>117.9</ele>
        <time>2012-05-13T07:17:30Z</time>
      </trkpt>
      <trkpt lat="48.78045" lon="2.09696">
        <ele>117.9</ele>
        <time>2012-05-13T07:17:37Z</time>
      </trkpt>
      <trkpt lat="48.7805" lon="2.09708">
        <ele>117.9</ele>
        <time>2012-05-13T07:17:44Z</time>
      </trkpt>
      <trkpt lat="48.78056" lon="2.09736">
        <ele>117.42</ele>
        <time>2012-05-13T07:18:00Z</time>
      </trkpt>
      <trkpt lat="48.78062" lon="2.09762">
        <ele>117.42</ele>
        <time>2012-05-13T07:18:19Z</time>
      </trkpt>
      <trkpt lat="48.78066" lon="2.09799">
        <ele>117.42</ele>
        <time>2012-05-13T07:18:35Z</time>
      </trkpt>
      <trkpt lat="48.78072" lon="2.09825">
        <ele>116.94</ele>
        <time>2012-05-13T07:18:51Z</time>
      </trkpt>
      <trkpt lat="48.78069" lon="2.09847">
        <ele>116.94</ele>
        <time>2012-05-13T07:19:05Z</time>
      </trkpt>
      <trkpt lat="48.78063" lon="2.09863">
        <ele>115.98</ele>
        <time>2012-05-13T07:19:21Z</time>
      </trkpt>
      <trkpt lat="48.78049" lon="2.0988">
        <ele>114.05</ele>
        <time>2012-05-13T07:19:37Z</time>
      </trkpt>
      <trkpt lat="48.78024" lon="2.09895">
        <ele>112.13</ele>
        <time>2012-05-13T07:19:56Z</time>
      </trkpt>
      <trkpt lat="48.78019" lon="2.09897">
        <ele>112.13</ele>
        <time>2012-05-13T07:19:59Z</time>
      </trkpt>
      <trkpt lat="48.77985" lon="2.0992">
        <ele>111.17</ele>
        <time>2012-05-13T07:20:13Z</time>
      </trkpt>
      <trkpt lat="48.77972" lon="2.09921">
        <ele>110.21</ele>
        <time>2012-05-13T07:20:23Z</time>
      </trkpt>
      <trkpt lat="48.77947" lon="2.09916">
        <ele>109.73</ele>
        <time>2012-05-13T07:20:37Z</time>
      </trkpt>
      <trkpt lat="48.77937" lon="2.09913">
        <ele>109.73</ele>
        <time>2012-05-13T07:20:45Z</time>
      </trkpt>
      <trkpt lat="48.77923" lon="2.09903">
        <ele>109.25</ele>
        <time>2012-05-13T07:20:56Z</time>
      </trkpt>
      <trkpt lat="48.77908" lon="2.0989">
        <ele>108.77</ele>
        <time>2012-05-13T07:21:10Z</time>
      </trkpt>
      <trkpt lat="48.77881" lon="2.09876">
        <ele>108.29</ele>
        <time>2012-05-13T07:21:28Z</time>
      </trkpt>
      <trkpt lat="48.7787" lon="2.09874">
        <ele>108.29</ele>
        <time>2012-05-13T07:21:41Z</time>
      </trkpt>
      <trkpt lat="48.77858" lon="2.09882">
        <ele>108.29</ele>
        <time>2012-05-13T07:21:54Z</time>
      </trkpt>
      <trkpt lat="48.77854" lon="2.09887">
        <ele>108.29</ele>
        <time>2012-05-13T07:22:05Z</time>
      </trkpt>
      <trkpt lat="48.77837" lon="2.09917">
        <ele>107.81</ele>
        <time>2012-05-13T07:22:25Z</time>
      </trkpt>
      <trkpt lat="48.77816" lon="2.09955">
        <ele>107.81</ele>
        <time>2012-05-13T07:22:43Z</time>
      </trkpt>
      <trkpt lat="48.77818" lon="2.0998">
        <ele>107.81</ele>
        <time>2012-05-13T07:22:58Z</time>
      </trkpt>
      <trkpt lat="48.7781" lon="2.10002">
        <ele>107.32</ele>
        <time>2012-05-13T07:23:17Z</time>
      </trkpt>
      <trkpt lat="48.77796" lon="2.10008">
        <ele>106.84</ele>
        <time>2012-05-13T07:23:37Z</time>
      </trkpt>
      <trkpt lat="48.77762" lon="2.10013">
        <ele>106.36</ele>
        <time>2012-05-13T07:23:58Z</time>
      </trkpt>
      <trkpt lat="48.77753" lon="2.10017">
        <ele>106.36</ele>
        <time>2012-05-13T07:24:03Z</time>
      </trkpt>
      <trkpt lat="48.77706" lon="2.1003">
        <ele>105.4</ele>
        <time>2012-05-13T07:24:24Z</time>
      </trkpt>
      <trkpt lat="48.77677" lon="2.10036">
        <ele>104.44</ele>
        <time>2012-05-13T07:24:42Z</time>
      </trkpt>
      <trkpt lat="48.77655" lon="2.10042">
        <ele>103.48</ele>
        <time>2012-05-13T07:24:58Z</time>
      </trkpt>
      <trkpt lat="48.77641" lon="2.10045">
        <ele>103.48</ele>
        <time>2012-05-13T07:25:07Z</time>
      </trkpt>
      <trkpt lat="48.77635" lon="2.10047">
        <ele>103.48</ele>
        <time>2012-05-13T07:25:12Z</time>
      </trkpt>
      <trkpt lat="48.77624" lon="2.10061">
        <ele>103.48</ele>
        <time>2012-05-13T07:25:25Z</time>
      </trkpt>
      <trkpt lat="48.77623" lon="2.10089">
        <ele>103.48</ele>
        <time>2012-05-13T07:25:42Z</time>
      </trkpt>
      <trkpt lat="48.77621" lon="2.10125">
        <ele>103.48</ele>
        <time>2012-05-13T07:26:00Z</time>
      </trkpt>
      <trkpt lat="48.77615" lon="2.10163">
        <ele>103.48</ele>
        <time>2012-05-13T07:26:18Z</time>
      </trkpt>
      <trkpt lat="48.77611" lon="2.10202">
        <ele>103</ele>
        <time>2012-05-13T07:26:36Z</time>
      </trkpt>
      <trkpt lat="48.77615" lon="2.10246">
        <ele>103</ele>
        <time>2012-05-13T07:26:55Z</time>
      </trkpt>
      <trkpt lat="48.77623" lon="2.10282">
        <ele>103</ele>
        <time>2012-05-13T07:27:12Z</time>
      </trkpt>
      <trkpt lat="48.77632" lon="2.10316">
        <ele>103</ele>
        <time>2012-05-13T07:27:30Z</time>
      </trkpt>
      <trkpt lat="48.77633" lon="2.10317">
        <ele>103</ele>
        <time>2012-05-13T07:27:31Z</time>
      </trkpt>
      <trkpt lat="48.77623" lon="2.10357">
        <ele>103.96</ele>
        <time>2012-05-13T07:27:49Z</time>
      </trkpt>
      <trkpt lat="48.77619" lon="2.1039">
        <ele>104.44</ele>
        <time>2012-05-13T07:28:05Z</time>
      </trkpt>
      <trkpt lat="48.7761" lon="2.10426">
        <ele>104.44</ele>
        <time>2012-05-13T07:28:22Z</time>
      </trkpt>
      <trkpt lat="48.776" lon="2.10461">
        <ele>104.44</ele>
        <time>2012-05-13T07:28:40Z</time>
      </trkpt>
      <trkpt lat="48.776" lon="2.10463">
        <ele>104.44</ele>
        <time>2012-05-13T07:28:41Z</time>
      </trkpt>
      <trkpt lat="48.77593" lon="2.10496">
        <ele>103.96</ele>
        <time>2012-05-13T07:28:58Z</time>
      </trkpt>
      <trkpt lat="48.77588" lon="2.10524">
        <ele>104.92</ele>
        <time>2012-05-13T07:29:14Z</time>
      </trkpt>
      <trkpt lat="48.77584" lon="2.10543">
        <ele>104.92</ele>
        <time>2012-05-13T07:29:24Z</time>
      </trkpt>
      <trkpt lat="48.77582" lon="2.1055">
        <ele>104.92</ele>
        <time>2012-05-13T07:29:28Z</time>
      </trkpt>
      <trkpt lat="48.77565" lon="2.10583">
        <ele>104.44</ele>
        <time>2012-05-13T07:29:47Z</time>
      </trkpt>
      <trkpt lat="48.77552" lon="2.10613">
        <ele>104.44</ele>
        <time>2012-05-13T07:30:03Z</time>
      </trkpt>
      <trkpt lat="48.77538" lon="2.10642">
        <ele>104.44</ele>
        <time>2012-05-13T07:30:20Z</time>
      </trkpt>
      <trkpt lat="48.77534" lon="2.10671">
        <ele>104.44</ele>
        <time>2012-05-13T07:30:34Z</time>
      </trkpt>
      <trkpt lat="48.77545" lon="2.10707">
        <ele>104.44</ele>
        <time>2012-05-13T07:30:52Z</time>
      </trkpt>
      <trkpt lat="48.77553" lon="2.10738">
        <ele>104.92</ele>
        <time>2012-05-13T07:31:09Z</time>
      </trkpt>
      <trkpt lat="48.77559" lon="2.10762">
        <ele>104.92</ele>
        <time>2012-05-13T07:31:23Z</time>
      </trkpt>
      <trkpt lat="48.77571" lon="2.10797">
        <ele>104.92</ele>
        <time>2012-05-13T07:31:40Z</time>
      </trkpt>
      <trkpt lat="48.77584" lon="2.10834">
        <ele>103.96</ele>
        <time>2012-05-13T07:31:58Z</time>
      </trkpt>
      <trkpt lat="48.77594" lon="2.10858">
        <ele>103.96</ele>
        <time>2012-05-13T07:32:10Z</time>
      </trkpt>
      <trkpt lat="48.77613" lon="2.10889">
        <ele>103</ele>
        <time>2012-05-13T07:32:28Z</time>
      </trkpt>
      <trkpt lat="48.77621" lon="2.10909">
        <ele>103</ele>
        <time>2012-05-13T07:32:39Z</time>
      </trkpt>
      <trkpt lat="48.77635" lon="2.10944">
        <ele>103</ele>
        <time>2012-05-13T07:32:58Z</time>
      </trkpt>
      <trkpt lat="48.77646" lon="2.10972">
        <ele>103</ele>
        <time>2012-05-13T07:33:14Z</time>
      </trkpt>
      <trkpt lat="48.77659" lon="2.11">
        <ele>102.52</ele>
        <time>2012-05-13T07:33:30Z</time>
      </trkpt>
      <trkpt lat="48.77669" lon="2.11031">
        <ele>102.52</ele>
        <time>2012-05-13T07:33:46Z</time>
      </trkpt>
      <trkpt lat="48.7768" lon="2.11061">
        <ele>102.52</ele>
        <time>2012-05-13T07:34:04Z</time>
      </trkpt>
      <trkpt lat="48.77688" lon="2.11094">
        <ele>102.04</ele>
        <time>2012-05-13T07:34:21Z</time>
      </trkpt>
      <trkpt lat="48.77699" lon="2.11131">
        <ele>101.56</ele>
        <time>2012-05-13T07:34:40Z</time>
      </trkpt>
      <trkpt lat="48.77705" lon="2.11164">
        <ele>101.56</ele>
        <time>2012-05-13T07:34:58Z</time>
      </trkpt>
      <trkpt lat="48.77706" lon="2.11171">
        <ele>101.56</ele>
        <time>2012-05-13T07:35:03Z</time>
      </trkpt>
      <trkpt lat="48.7771" lon="2.1121">
        <ele>101.56</ele>
        <time>2012-05-13T07:35:22Z</time>
      </trkpt>
      <trkpt lat="48.77715" lon="2.1124">
        <ele>101.56</ele>
        <time>2012-05-13T07:35:39Z</time>
      </trkpt>
      <trkpt lat="48.77713" lon="2.11271">
        <ele>101.08</ele>
        <time>2012-05-13T07:35:57Z</time>
      </trkpt>
      <trkpt lat="48.7771" lon="2.11276">
        <ele>101.08</ele>
        <time>2012-05-13T07:36:00Z</time>
      </trkpt>
      <trkpt lat="48.77702" lon="2.11319">
        <ele>100.6</ele>
        <time>2012-05-13T07:36:19Z</time>
      </trkpt>
      <trkpt lat="48.77705" lon="2.11351">
        <ele>100.6</ele>
        <time>2012-05-13T07:36:34Z</time>
      </trkpt>
      <trkpt lat="48.77711" lon="2.11375">
        <ele>100.11</ele>
        <time>2012-05-13T07:36:45Z</time>
      </trkpt>
      <trkpt lat="48.77694" lon="2.11419">
        <ele>99.63</ele>
        <time>2012-05-13T07:37:04Z</time>
      </trkpt>
      <trkpt lat="48.77685" lon="2.11455">
        <ele>99.63</ele>
        <time>2012-05-13T07:37:21Z</time>
      </trkpt>
      <trkpt lat="48.77685" lon="2.11491">
        <ele>99.63</ele>
        <time>2012-05-13T07:37:38Z</time>
      </trkpt>
      <trkpt lat="48.77692" lon="2.11524">
        <ele>99.15</ele>
        <time>2012-05-13T07:37:55Z</time>
      </trkpt>
      <trkpt lat="48.77695" lon="2.11529">
        <ele>99.15</ele>
        <time>2012-05-13T07:37:57Z</time>
      </trkpt>
      <trkpt lat="48.77697" lon="2.11533">
        <ele>99.15</ele>
        <time>2012-05-13T07:37:59Z</time>
      </trkpt>
      <trkpt lat="48.777" lon="2.11542">
        <ele>99.15</ele>
        <time>2012-05-13T07:38:04Z</time>
      </trkpt>
      <trkpt lat="48.77702" lon="2.11546">
        <ele>99.15</ele>
        <time>2012-05-13T07:38:06Z</time>
      </trkpt>
      <trkpt lat="48.77708" lon="2.11569">
        <ele>99.15</ele>
        <time>2012-05-13T07:38:19Z</time>
      </trkpt>
      <trkpt lat="48.77717" lon="2.11593">
        <ele>99.15</ele>
        <time>2012-05-13T07:38:34Z</time>
      </trkpt>
      <trkpt lat="48.77734" lon="2.11619">
        <ele>99.15</ele>
        <time>2012-05-13T07:38:48Z</time>
      </trkpt>
      <trkpt lat="48.7774" lon="2.11633">
        <ele>98.67</ele>
        <time>2012-05-13T07:38:55Z</time>
      </trkpt>
      <trkpt lat="48.77739" lon="2.11674">
        <ele>98.67</ele>
        <time>2012-05-13T07:39:12Z</time>
      </trkpt>
      <trkpt lat="48.77738" lon="2.11679">
        <ele>98.67</ele>
        <time>2012-05-13T07:39:15Z</time>
      </trkpt>
      <trkpt lat="48.77741" lon="2.11714">
        <ele>98.67</ele>
        <time>2012-05-13T07:39:33Z</time>
      </trkpt>
      <trkpt lat="48.77745" lon="2.11745">
        <ele>98.67</ele>
        <time>2012-05-13T07:39:49Z</time>
      </trkpt>
      <trkpt lat="48.77731" lon="2.11758">
        <ele>98.67</ele>
        <time>2012-05-13T07:40:04Z</time>
      </trkpt>
      <trkpt lat="48.77702" lon="2.11768">
        <ele>98.67</ele>
        <time>2012-05-13T07:40:23Z</time>
      </trkpt>
      <trkpt lat="48.77688" lon="2.11774">
        <ele>98.67</ele>
        <time>2012-05-13T07:40:35Z</time>
      </trkpt>
      <trkpt lat="48.7768" lon="2.11777">
        <ele>98.67</ele>
        <time>2012-05-13T07:40:55Z</time>
      </trkpt>
      <trkpt lat="48.77683" lon="2.11789">
        <ele>96.27</ele>
        <time>2012-05-13T07:41:10Z</time>
      </trkpt>
      <trkpt lat="48.77685" lon="2.11793">
        <ele>96.27</ele>
        <time>2012-05-13T07:41:12Z</time>
      </trkpt>
      <trkpt lat="48.77688" lon="2.11802">
        <ele>96.27</ele>
        <time>2012-05-13T07:41:16Z</time>
      </trkpt>
      <trkpt lat="48.77691" lon="2.11814">
        <ele>95.79</ele>
        <time>2012-05-13T07:41:23Z</time>
      </trkpt>
      <trkpt lat="48.77691" lon="2.11847">
        <ele>95.79</ele>
        <time>2012-05-13T07:41:38Z</time>
      </trkpt>
      <trkpt lat="48.77689" lon="2.11878">
        <ele>95.31</ele>
        <time>2012-05-13T07:41:52Z</time>
      </trkpt>
      <trkpt lat="48.77683" lon="2.11912">
        <ele>94.83</ele>
        <time>2012-05-13T07:42:10Z</time>
      </trkpt>
      <trkpt lat="48.77682" lon="2.11945">
        <ele>94.83</ele>
        <time>2012-05-13T07:42:27Z</time>
      </trkpt>
      <trkpt lat="48.7768" lon="2.11953">
        <ele>94.83</ele>
        <time>2012-05-13T07:42:31Z</time>
      </trkpt>
      <trkpt lat="48.77677" lon="2.11993">
        <ele>94.83</ele>
        <time>2012-05-13T07:42:51Z</time>
      </trkpt>
      <trkpt lat="48.77672" lon="2.1203">
        <ele>94.83</ele>
        <time>2012-05-13T07:43:10Z</time>
      </trkpt>
      <trkpt lat="48.77665" lon="2.12065">
        <ele>94.35</ele>
        <time>2012-05-13T07:43:27Z</time>
      </trkpt>
      <trkpt lat="48.77654" lon="2.12095">
        <ele>94.35</ele>
        <time>2012-05-13T07:43:43Z</time>
      </trkpt>
      <trkpt lat="48.77646" lon="2.12119">
        <ele>94.35</ele>
        <time>2012-05-13T07:43:56Z</time>
      </trkpt>
      <trkpt lat="48.77638" lon="2.12147">
        <ele>94.83</ele>
        <time>2012-05-13T07:44:12Z</time>
      </trkpt>
      <trkpt lat="48.7763" lon="2.12187">
        <ele>94.83</ele>
        <time>2012-05-13T07:44:34Z</time>
      </trkpt>
      <trkpt lat="48.77619" lon="2.12217">
        <ele>94.83</ele>
        <time>2012-05-13T07:44:52Z</time>
      </trkpt>
      <trkpt lat="48.77612" lon="2.12247">
        <ele>94.83</ele>
        <time>2012-05-13T07:45:10Z</time>
      </trkpt>
      <trkpt lat="48.77605" lon="2.12277">
        <ele>94.83</ele>
        <time>2012-05-13T07:45:27Z</time>
      </trkpt>
      <trkpt lat="48.77593" lon="2.12285">
        <ele>94.83</ele>
        <time>2012-05-13T07:45:40Z</time>
      </trkpt>
      <trkpt lat="48.7759" lon="2.12285">
        <ele>94.83</ele>
        <time>2012-05-13T07:45:43Z</time>
      </trkpt>
      <trkpt lat="48.77583" lon="2.12301">
        <ele>94.83</ele>
        <time>2012-05-13T07:45:54Z</time>
      </trkpt>
      <trkpt lat="48.77566" lon="2.12314">
        <ele>94.83</ele>
        <time>2012-05-13T07:46:13Z</time>
      </trkpt>
      <trkpt lat="48.77555" lon="2.12338">
        <ele>94.83</ele>
        <time>2012-05-13T07:46:30Z</time>
      </trkpt>
      <trkpt lat="48.77554" lon="2.12369">
        <ele>94.83</ele>
        <time>2012-05-13T07:46:48Z</time>
      </trkpt>
      <trkpt lat="48.77548" lon="2.12388">
        <ele>94.83</ele>
        <time>2012-05-13T07:46:59Z</time>
      </trkpt>
      <trkpt lat="48.77533" lon="2.12422">
        <ele>94.83</ele>
        <time>2012-05-13T07:47:21Z</time>
      </trkpt>
      <trkpt lat="48.77527" lon="2.12442">
        <ele>94.83</ele>
        <time>2012-05-13T07:47:37Z</time>
      </trkpt>
      <trkpt lat="48.77519" lon="2.1247">
        <ele>94.83</ele>
        <time>2012-05-13T07:47:52Z</time>
      </trkpt>
      <trkpt lat="48.77505" lon="2.125">
        <ele>94.83</ele>
        <time>2012-05-13T07:48:11Z</time>
      </trkpt>
      <trkpt lat="48.77496" lon="2.12523">
        <ele>94.83</ele>
        <time>2012-05-13T07:48:26Z</time>
      </trkpt>
      <trkpt lat="48.77493" lon="2.12555">
        <ele>95.31</ele>
        <time>2012-05-13T07:48:43Z</time>
      </trkpt>
      <trkpt lat="48.77494" lon="2.1259">
        <ele>95.31</ele>
        <time>2012-05-13T07:49:01Z</time>
      </trkpt>
      <trkpt lat="48.77494" lon="2.12602">
        <ele>95.31</ele>
        <time>2012-05-13T07:49:08Z</time>
      </trkpt>
      <trkpt lat="48.77489" lon="2.12636">
        <ele>95.31</ele>
        <time>2012-05-13T07:49:26Z</time>
      </trkpt>
      <trkpt lat="48.77472" lon="2.12639">
        <ele>97.23</ele>
        <time>2012-05-13T07:49:43Z</time>
      </trkpt>
      <trkpt lat="48.7745" lon="2.12632">
        <ele>99.63</ele>
        <time>2012-05-13T07:50:03Z</time>
      </trkpt>
      <trkpt lat="48.77427" lon="2.12633">
        <ele>101.56</ele>
        <time>2012-05-13T07:50:18Z</time>
      </trkpt>
      <trkpt lat="48.77426" lon="2.12634">
        <ele>101.56</ele>
        <time>2012-05-13T07:50:20Z</time>
      </trkpt>
      <trkpt lat="48.77409" lon="2.12637">
        <ele>103</ele>
        <time>2012-05-13T07:50:34Z</time>
      </trkpt>
      <trkpt lat="48.77389" lon="2.12629">
        <ele>104.92</ele>
        <time>2012-05-13T07:50:50Z</time>
      </trkpt>
      <trkpt lat="48.77386" lon="2.12631">
        <ele>105.4</ele>
        <time>2012-05-13T07:50:53Z</time>
      </trkpt>
      <trkpt lat="48.77382" lon="2.12636">
        <ele>105.4</ele>
        <time>2012-05-13T07:50:57Z</time>
      </trkpt>
      <trkpt lat="48.77375" lon="2.12643">
        <ele>106.36</ele>
        <time>2012-05-13T07:51:04Z</time>
      </trkpt>
      <trkpt lat="48.7737" lon="2.12664">
        <ele>106.84</ele>
        <time>2012-05-13T07:51:15Z</time>
      </trkpt>
      <trkpt lat="48.77364" lon="2.12688">
        <ele>106.84</ele>
        <time>2012-05-13T07:51:29Z</time>
      </trkpt>
      <trkpt lat="48.77364" lon="2.12695">
        <ele>106.84</ele>
        <time>2012-05-13T07:51:32Z</time>
      </trkpt>
      <trkpt lat="48.77358" lon="2.12716">
        <ele>106.84</ele>
        <time>2012-05-13T07:51:42Z</time>
      </trkpt>
      <trkpt lat="48.77358" lon="2.12748">
        <ele>106.84</ele>
        <time>2012-05-13T07:51:58Z</time>
      </trkpt>
      <trkpt lat="48.77361" lon="2.12775">
        <ele>105.88</ele>
        <time>2012-05-13T07:52:14Z</time>
      </trkpt>
      <trkpt lat="48.77372" lon="2.12805">
        <ele>103.48</ele>
        <time>2012-05-13T07:52:29Z</time>
      </trkpt>
      <trkpt lat="48.77393" lon="2.12829">
        <ele>102.04</ele>
        <time>2012-05-13T07:52:45Z</time>
      </trkpt>
      <trkpt lat="48.77414" lon="2.12846">
        <ele>100.6</ele>
        <time>2012-05-13T07:52:59Z</time>
      </trkpt>
      <trkpt lat="48.77415" lon="2.12849">
        <ele>99.63</ele>
        <time>2012-05-13T07:53:01Z</time>
      </trkpt>
      <trkpt lat="48.7741" lon="2.12878">
        <ele>99.63</ele>
        <time>2012-05-13T07:53:16Z</time>
      </trkpt>
      <trkpt lat="48.77405" lon="2.12887">
        <ele>98.67</ele>
        <time>2012-05-13T07:53:23Z</time>
      </trkpt>
      <trkpt lat="48.77396" lon="2.1291">
        <ele>98.67</ele>
        <time>2012-05-13T07:53:38Z</time>
      </trkpt>
      <trkpt lat="48.77394" lon="2.12919">
        <ele>98.67</ele>
        <time>2012-05-13T07:53:42Z</time>
      </trkpt>
      <trkpt lat="48.77388" lon="2.12923">
        <ele>98.67</ele>
        <time>2012-05-13T07:53:50Z</time>
      </trkpt>
      <trkpt lat="48.77372" lon="2.12918">
        <ele>98.67</ele>
        <time>2012-05-13T07:54:08Z</time>
      </trkpt>
      <trkpt lat="48.77372" lon="2.12918">
        <ele>98.67</ele>
        <time>2012-05-13T07:54:11Z</time>
      </trkpt>
      <trkpt lat="48.77372" lon="2.12913">
        <ele>98.67</ele>
        <time>2012-05-13T07:54:28Z</time>
      </trkpt>
      <trkpt lat="48.77372" lon="2.12912">
        <ele>98.67</ele>
        <time>2012-05-13T07:54:49Z</time>
      </trkpt>
      <trkpt lat="48.77372" lon="2.1291">
        <ele>98.67</ele>
        <time>2012-05-13T07:55:12Z</time>
      </trkpt>
      <trkpt lat="48.77373" lon="2.12909">
        <ele>98.67</ele>
        <time>2012-05-13T07:55:32Z</time>
      </trkpt>
      <trkpt lat="48.77374" lon="2.12909">
        <ele>98.67</ele>
        <time>2012-05-13T07:55:51Z</time>
      </trkpt>
      <trkpt lat="48.77375" lon="2.12908">
        <ele>98.67</ele>
        <time>2012-05-13T07:56:20Z</time>
      </trkpt>
      <trkpt lat="48.77375" lon="2.12907">
        <ele>99.15</ele>
        <time>2012-05-13T07:56:44Z</time>
      </trkpt>
      <trkpt lat="48.77375" lon="2.12907">
        <ele>99.15</ele>
        <time>2012-05-13T07:57:03Z</time>
      </trkpt>
      <trkpt lat="48.77375" lon="2.12906">
        <ele>99.15</ele>
        <time>2012-05-13T07:57:32Z</time>
      </trkpt>
      <trkpt lat="48.77375" lon="2.12906">
        <ele>99.15</ele>
        <time>2012-05-13T07:57:58Z</time>
      </trkpt>
      <trkpt lat="48.77376" lon="2.12901">
        <ele>99.15</ele>
        <time>2012-05-13T07:58:19Z</time>
      </trkpt>
      <trkpt lat="48.77369" lon="2.12911">
        <ele>99.15</ele>
        <time>2012-05-13T07:58:44Z</time>
      </trkpt>
      <trkpt lat="48.77369" lon="2.12912">
        <ele>99.15</ele>
        <time>2012-05-13T07:58:45Z</time>
      </trkpt>
      <trkpt lat="48.77384" lon="2.1291">
        <ele>99.15</ele>
        <time>2012-05-13T07:59:08Z</time>
      </trkpt>
      <trkpt lat="48.7737" lon="2.12918">
        <ele>99.63</ele>
        <time>2012-05-13T07:59:34Z</time>
      </trkpt>
      <trkpt lat="48.77376" lon="2.12904">
        <ele>99.63</ele>
        <time>2012-05-13T07:59:58Z</time>
      </trkpt>
      <trkpt lat="48.77374" lon="2.12902">
        <ele>99.63</ele>
        <time>2012-05-13T07:59:59Z</time>
      </trkpt>
      <trkpt lat="48.7733" lon="2.12873">
        <ele>99.63</ele>
        <time>2012-05-13T08:00:29Z</time>
      </trkpt>
      <trkpt lat="48.774" lon="2.12893">
        <ele>101.56</ele>
        <time>2012-05-13T08:18:17Z</time>
      </trkpt>
      <trkpt lat="48.77392" lon="2.12904">
        <ele>101.56</ele>
        <time>2012-05-13T08:18:31Z</time>
      </trkpt>
      <trkpt lat="48.77395" lon="2.1291">
        <ele>101.56</ele>
        <time>2012-05-13T08:18:38Z</time>
      </trkpt>
      <trkpt lat="48.77402" lon="2.12919">
        <ele>101.56</ele>
        <time>2012-05-13T08:18:52Z</time>
      </trkpt>
      <trkpt lat="48.77407" lon="2.12926">
        <ele>101.56</ele>
        <time>2012-05-13T08:19:07Z</time>
      </trkpt>
      <trkpt lat="48.77408" lon="2.12922">
        <ele>100.6</ele>
        <time>2012-05-13T08:19:26Z</time>
      </trkpt>
      <trkpt lat="48.77411" lon="2.12916">
        <ele>100.6</ele>
        <time>2012-05-13T08:19:38Z</time>
      </trkpt>
      <trkpt lat="48.77414" lon="2.12915">
        <ele>100.6</ele>
        <time>2012-05-13T08:19:41Z</time>
      </trkpt>
      <trkpt lat="48.77431" lon="2.12906">
        <ele>100.6</ele>
        <time>2012-05-13T08:19:56Z</time>
      </trkpt>
      <trkpt lat="48.77433" lon="2.12903">
        <ele>100.6</ele>
        <time>2012-05-13T08:19:59Z</time>
      </trkpt>
      <trkpt lat="48.77439" lon="2.129">
        <ele>100.6</ele>
        <time>2012-05-13T08:20:06Z</time>
      </trkpt>
      <trkpt lat="48.77448" lon="2.12893">
        <ele>100.11</ele>
        <time>2012-05-13T08:20:20Z</time>
      </trkpt>
      <trkpt lat="48.77449" lon="2.12891">
        <ele>100.11</ele>
        <time>2012-05-13T08:20:21Z</time>
      </trkpt>
      <trkpt lat="48.77453" lon="2.12874">
        <ele>99.63</ele>
        <time>2012-05-13T08:20:31Z</time>
      </trkpt>
      <trkpt lat="48.77462" lon="2.12862">
        <ele>99.63</ele>
        <time>2012-05-13T08:20:46Z</time>
      </trkpt>
      <trkpt lat="48.77467" lon="2.12861">
        <ele>99.63</ele>
        <time>2012-05-13T08:20:50Z</time>
      </trkpt>
      <trkpt lat="48.77486" lon="2.12868">
        <ele>98.67</ele>
        <time>2012-05-13T08:21:04Z</time>
      </trkpt>
      <trkpt lat="48.775" lon="2.1288">
        <ele>98.19</ele>
        <time>2012-05-13T08:21:14Z</time>
      </trkpt>
      <trkpt lat="48.77508" lon="2.12897">
        <ele>97.71</ele>
        <time>2012-05-13T08:21:24Z</time>
      </trkpt>
      <trkpt lat="48.775" lon="2.1293">
        <ele>97.23</ele>
        <time>2012-05-13T08:21:42Z</time>
      </trkpt>
      <trkpt lat="48.77494" lon="2.12969">
        <ele>97.23</ele>
        <time>2012-05-13T08:22:00Z</time>
      </trkpt>
      <trkpt lat="48.77483" lon="2.12999">
        <ele>96.75</ele>
        <time>2012-05-13T08:22:15Z</time>
      </trkpt>
      <trkpt lat="48.77474" lon="2.13031">
        <ele>96.75</ele>
        <time>2012-05-13T08:22:30Z</time>
      </trkpt>
      <trkpt lat="48.77468" lon="2.13065">
        <ele>96.75</ele>
        <time>2012-05-13T08:22:46Z</time>
      </trkpt>
      <trkpt lat="48.77454" lon="2.13092">
        <ele>96.75</ele>
        <time>2012-05-13T08:23:04Z</time>
      </trkpt>
      <trkpt lat="48.77435" lon="2.13093">
        <ele>96.75</ele>
        <time>2012-05-13T08:23:23Z</time>
      </trkpt>
      <trkpt lat="48.77434" lon="2.13094">
        <ele>96.75</ele>
        <time>2012-05-13T08:23:24Z</time>
      </trkpt>
      <trkpt lat="48.77413" lon="2.13095">
        <ele>96.75</ele>
        <time>2012-05-13T08:23:42Z</time>
      </trkpt>
      <trkpt lat="48.7741" lon="2.13091">
        <ele>96.75</ele>
        <time>2012-05-13T08:23:45Z</time>
      </trkpt>
      <trkpt lat="48.77393" lon="2.13098">
        <ele>96.27</ele>
        <time>2012-05-13T08:24:01Z</time>
      </trkpt>
      <trkpt lat="48.77386" lon="2.13104">
        <ele>96.27</ele>
        <time>2012-05-13T08:24:07Z</time>
      </trkpt>
      <trkpt lat="48.77359" lon="2.1313">
        <ele>96.27</ele>
        <time>2012-05-13T08:24:27Z</time>
      </trkpt>
      <trkpt lat="48.77344" lon="2.13155">
        <ele>96.27</ele>
        <time>2012-05-13T08:24:42Z</time>
      </trkpt>
      <trkpt lat="48.77328" lon="2.13181">
        <ele>95.79</ele>
        <time>2012-05-13T08:25:00Z</time>
      </trkpt>
      <trkpt lat="48.77316" lon="2.13199">
        <ele>95.79</ele>
        <time>2012-05-13T08:25:13Z</time>
      </trkpt>
      <trkpt lat="48.77297" lon="2.13213">
        <ele>96.75</ele>
        <time>2012-05-13T08:25:32Z</time>
      </trkpt>
      <trkpt lat="48.77282" lon="2.13204">
        <ele>97.71</ele>
        <time>2012-05-13T08:25:50Z</time>
      </trkpt>
      <trkpt lat="48.77258" lon="2.13187">
        <ele>98.19</ele>
        <time>2012-05-13T08:26:08Z</time>
      </trkpt>
      <trkpt lat="48.77255" lon="2.1317">
        <ele>98.67</ele>
        <time>2012-05-13T08:26:19Z</time>
      </trkpt>
      <trkpt lat="48.7725" lon="2.1315">
        <ele>98.67</ele>
        <time>2012-05-13T08:26:29Z</time>
      </trkpt>
      <trkpt lat="48.77229" lon="2.13135">
        <ele>100.6</ele>
        <time>2012-05-13T08:26:46Z</time>
      </trkpt>
      <trkpt lat="48.7721" lon="2.1312">
        <ele>103.48</ele>
        <time>2012-05-13T08:27:02Z</time>
      </trkpt>
      <trkpt lat="48.77189" lon="2.13099">
        <ele>105.4</ele>
        <time>2012-05-13T08:27:22Z</time>
      </trkpt>
      <trkpt lat="48.77173" lon="2.13076">
        <ele>107.32</ele>
        <time>2012-05-13T08:27:39Z</time>
      </trkpt>
      <trkpt lat="48.77158" lon="2.1306">
        <ele>108.77</ele>
        <time>2012-05-13T08:27:54Z</time>
      </trkpt>
      <trkpt lat="48.77144" lon="2.13055">
        <ele>111.17</ele>
        <time>2012-05-13T08:28:08Z</time>
      </trkpt>
      <trkpt lat="48.77136" lon="2.13059">
        <ele>112.13</ele>
        <time>2012-05-13T08:28:19Z</time>
      </trkpt>
      <trkpt lat="48.77134" lon="2.13084">
        <ele>114.05</ele>
        <time>2012-05-13T08:28:34Z</time>
      </trkpt>
      <trkpt lat="48.77135" lon="2.13094">
        <ele>114.53</ele>
        <time>2012-05-13T08:28:39Z</time>
      </trkpt>
      <trkpt lat="48.77132" lon="2.13119">
        <ele>116.46</ele>
        <time>2012-05-13T08:28:54Z</time>
      </trkpt>
      <trkpt lat="48.77139" lon="2.13148">
        <ele>116.46</ele>
        <time>2012-05-13T08:29:08Z</time>
      </trkpt>
      <trkpt lat="48.77142" lon="2.13152">
        <ele>116.46</ele>
        <time>2012-05-13T08:29:11Z</time>
      </trkpt>
      <trkpt lat="48.77158" lon="2.13189">
        <ele>116.46</ele>
        <time>2012-05-13T08:29:30Z</time>
      </trkpt>
      <trkpt lat="48.77162" lon="2.13213">
        <ele>115.98</ele>
        <time>2012-05-13T08:29:44Z</time>
      </trkpt>
      <trkpt lat="48.77161" lon="2.13221">
        <ele>115.98</ele>
        <time>2012-05-13T08:29:50Z</time>
      </trkpt>
      <trkpt lat="48.77141" lon="2.13222">
        <ele>116.46</ele>
        <time>2012-05-13T08:30:12Z</time>
      </trkpt>
      <trkpt lat="48.77134" lon="2.1323">
        <ele>114.05</ele>
        <time>2012-05-13T08:30:26Z</time>
      </trkpt>
      <trkpt lat="48.77138" lon="2.13244">
        <ele>113.09</ele>
        <time>2012-05-13T08:30:36Z</time>
      </trkpt>
      <trkpt lat="48.77126" lon="2.13277">
        <ele>110.69</ele>
        <time>2012-05-13T08:30:52Z</time>
      </trkpt>
      <trkpt lat="48.77123" lon="2.133">
        <ele>108.77</ele>
        <time>2012-05-13T08:31:07Z</time>
      </trkpt>
      <trkpt lat="48.77123" lon="2.13302">
        <ele>107.81</ele>
        <time>2012-05-13T08:31:09Z</time>
      </trkpt>
      <trkpt lat="48.77116" lon="2.13332">
        <ele>105.4</ele>
        <time>2012-05-13T08:31:23Z</time>
      </trkpt>
      <trkpt lat="48.77103" lon="2.13376">
        <ele>103.96</ele>
        <time>2012-05-13T08:31:41Z</time>
      </trkpt>
      <trkpt lat="48.77099" lon="2.13402">
        <ele>102.52</ele>
        <time>2012-05-13T08:31:55Z</time>
      </trkpt>
      <trkpt lat="48.77095" lon="2.13425">
        <ele>101.08</ele>
        <time>2012-05-13T08:32:09Z</time>
      </trkpt>
      <trkpt lat="48.77086" lon="2.13464">
        <ele>100.11</ele>
        <time>2012-05-13T08:32:27Z</time>
      </trkpt>
      <trkpt lat="48.77078" lon="2.13496">
        <ele>99.63</ele>
        <time>2012-05-13T08:32:46Z</time>
      </trkpt>
      <trkpt lat="48.77077" lon="2.13534">
        <ele>101.08</ele>
        <time>2012-05-13T08:33:06Z</time>
      </trkpt>
      <trkpt lat="48.77075" lon="2.13555">
        <ele>102.04</ele>
        <time>2012-05-13T08:33:16Z</time>
      </trkpt>
      <trkpt lat="48.7707" lon="2.13593">
        <ele>104.92</ele>
        <time>2012-05-13T08:33:33Z</time>
      </trkpt>
      <trkpt lat="48.77065" lon="2.1363">
        <ele>104.92</ele>
        <time>2012-05-13T08:33:52Z</time>
      </trkpt>
      <trkpt lat="48.77051" lon="2.13675">
        <ele>103</ele>
        <time>2012-05-13T08:34:11Z</time>
      </trkpt>
      <trkpt lat="48.77041" lon="2.1371">
        <ele>102.04</ele>
        <time>2012-05-13T08:34:28Z</time>
      </trkpt>
      <trkpt lat="48.77039" lon="2.13712">
        <ele>102.04</ele>
        <time>2012-05-13T08:34:30Z</time>
      </trkpt>
      <trkpt lat="48.77021" lon="2.13717">
        <ele>101.56</ele>
        <time>2012-05-13T08:34:44Z</time>
      </trkpt>
      <trkpt lat="48.77005" lon="2.13721">
        <ele>101.56</ele>
        <time>2012-05-13T08:35:01Z</time>
      </trkpt>
      <trkpt lat="48.77004" lon="2.13722">
        <ele>101.56</ele>
        <time>2012-05-13T08:35:02Z</time>
      </trkpt>
      <trkpt lat="48.76989" lon="2.13757">
        <ele>103</ele>
        <time>2012-05-13T08:35:21Z</time>
      </trkpt>
      <trkpt lat="48.76975" lon="2.1379">
        <ele>104.44</ele>
        <time>2012-05-13T08:35:39Z</time>
      </trkpt>
      <trkpt lat="48.76966" lon="2.13814">
        <ele>105.4</ele>
        <time>2012-05-13T08:35:56Z</time>
      </trkpt>
      <trkpt lat="48.76964" lon="2.13824">
        <ele>105.4</ele>
        <time>2012-05-13T08:36:03Z</time>
      </trkpt>
      <trkpt lat="48.76958" lon="2.13866">
        <ele>103.48</ele>
        <time>2012-05-13T08:36:19Z</time>
      </trkpt>
      <trkpt lat="48.76958" lon="2.13874">
        <ele>103</ele>
        <time>2012-05-13T08:36:22Z</time>
      </trkpt>
      <trkpt lat="48.76957" lon="2.13884">
        <ele>102.52</ele>
        <time>2012-05-13T08:36:26Z</time>
      </trkpt>
      <trkpt lat="48.76959" lon="2.13927">
        <ele>100.6</ele>
        <time>2012-05-13T08:36:47Z</time>
      </trkpt>
      <trkpt lat="48.7697" lon="2.13944">
        <ele>97.71</ele>
        <time>2012-05-13T08:37:02Z</time>
      </trkpt>
      <trkpt lat="48.76984" lon="2.13966">
        <ele>95.31</ele>
        <time>2012-05-13T08:37:16Z</time>
      </trkpt>
      <trkpt lat="48.76989" lon="2.13983">
        <ele>94.35</ele>
        <time>2012-05-13T08:37:24Z</time>
      </trkpt>
      <trkpt lat="48.7699" lon="2.1399">
        <ele>93.87</ele>
        <time>2012-05-13T08:37:27Z</time>
      </trkpt>
      <trkpt lat="48.76997" lon="2.14">
        <ele>93.39</ele>
        <time>2012-05-13T08:37:32Z</time>
      </trkpt>
      <trkpt lat="48.77005" lon="2.14006">
        <ele>91.94</ele>
        <time>2012-05-13T08:37:37Z</time>
      </trkpt>
      <trkpt lat="48.77024" lon="2.14034">
        <ele>90.02</ele>
        <time>2012-05-13T08:37:54Z</time>
      </trkpt>
      <trkpt lat="48.77045" lon="2.14061">
        <ele>88.58</ele>
        <time>2012-05-13T08:38:13Z</time>
      </trkpt>
      <trkpt lat="48.77063" lon="2.14085">
        <ele>87.62</ele>
        <time>2012-05-13T08:38:29Z</time>
      </trkpt>
      <trkpt lat="48.77072" lon="2.14099">
        <ele>87.14</ele>
        <time>2012-05-13T08:38:38Z</time>
      </trkpt>
      <trkpt lat="48.77077" lon="2.14104">
        <ele>87.14</ele>
        <time>2012-05-13T08:38:42Z</time>
      </trkpt>
      <trkpt lat="48.771" lon="2.14112">
        <ele>86.66</ele>
        <time>2012-05-13T08:39:02Z</time>
      </trkpt>
      <trkpt lat="48.7712" lon="2.14106">
        <ele>86.66</ele>
        <time>2012-05-13T08:39:19Z</time>
      </trkpt>
      <trkpt lat="48.77145" lon="2.141">
        <ele>86.66</ele>
        <time>2012-05-13T08:39:38Z</time>
      </trkpt>
      <trkpt lat="48.77161" lon="2.14104">
        <ele>87.62</ele>
        <time>2012-05-13T08:39:54Z</time>
      </trkpt>
      <trkpt lat="48.77173" lon="2.14116">
        <ele>89.06</ele>
        <time>2012-05-13T08:40:07Z</time>
      </trkpt>
      <trkpt lat="48.77164" lon="2.14133">
        <ele>90.5</ele>
        <time>2012-05-13T08:40:25Z</time>
      </trkpt>
      <trkpt lat="48.77161" lon="2.14153">
        <ele>92.9</ele>
        <time>2012-05-13T08:40:39Z</time>
      </trkpt>
      <trkpt lat="48.7715" lon="2.14178">
        <ele>95.79</ele>
        <time>2012-05-13T08:40:57Z</time>
      </trkpt>
      <trkpt lat="48.77144" lon="2.14203">
        <ele>96.75</ele>
        <time>2012-05-13T08:41:11Z</time>
      </trkpt>
      <trkpt lat="48.77137" lon="2.14232">
        <ele>97.71</ele>
        <time>2012-05-13T08:41:27Z</time>
      </trkpt>
      <trkpt lat="48.77129" lon="2.14258">
        <ele>97.71</ele>
        <time>2012-05-13T08:41:41Z</time>
      </trkpt>
      <trkpt lat="48.7712" lon="2.14286">
        <ele>97.71</ele>
        <time>2012-05-13T08:41:56Z</time>
      </trkpt>
      <trkpt lat="48.77113" lon="2.14314">
        <ele>95.31</ele>
        <time>2012-05-13T08:42:11Z</time>
      </trkpt>
      <trkpt lat="48.77107" lon="2.14333">
        <ele>94.83</ele>
        <time>2012-05-13T08:42:25Z</time>
      </trkpt>
      <trkpt lat="48.77099" lon="2.1436">
        <ele>95.31</ele>
        <time>2012-05-13T08:42:40Z</time>
      </trkpt>
      <trkpt lat="48.77093" lon="2.14391">
        <ele>97.23</ele>
        <time>2012-05-13T08:42:55Z</time>
      </trkpt>
      <trkpt lat="48.77092" lon="2.14396">
        <ele>97.23</ele>
        <time>2012-05-13T08:42:58Z</time>
      </trkpt>
      <trkpt lat="48.77088" lon="2.14417">
        <ele>98.19</ele>
        <time>2012-05-13T08:43:11Z</time>
      </trkpt>
      <trkpt lat="48.77085" lon="2.14425">
        <ele>98.67</ele>
        <time>2012-05-13T08:43:15Z</time>
      </trkpt>
      <trkpt lat="48.77084" lon="2.14435">
        <ele>98.67</ele>
        <time>2012-05-13T08:43:19Z</time>
      </trkpt>
      <trkpt lat="48.77078" lon="2.14467">
        <ele>100.11</ele>
        <time>2012-05-13T08:43:33Z</time>
      </trkpt>
      <trkpt lat="48.77076" lon="2.1448">
        <ele>100.6</ele>
        <time>2012-05-13T08:43:40Z</time>
      </trkpt>
      <trkpt lat="48.77073" lon="2.14506">
        <ele>100.6</ele>
        <time>2012-05-13T08:43:53Z</time>
      </trkpt>
      <trkpt lat="48.77073" lon="2.14511">
        <ele>100.6</ele>
        <time>2012-05-13T08:43:56Z</time>
      </trkpt>
      <trkpt lat="48.77073" lon="2.14539">
        <ele>97.71</ele>
        <time>2012-05-13T08:44:12Z</time>
      </trkpt>
      <trkpt lat="48.77069" lon="2.14573">
        <ele>96.27</ele>
        <time>2012-05-13T08:44:27Z</time>
      </trkpt>
      <trkpt lat="48.7707" lon="2.14605">
        <ele>93.39</ele>
        <time>2012-05-13T08:44:46Z</time>
      </trkpt>
      <trkpt lat="48.77069" lon="2.14616">
        <ele>92.42</ele>
        <time>2012-05-13T08:44:54Z</time>
      </trkpt>
      <trkpt lat="48.77068" lon="2.1463">
        <ele>91.46</ele>
        <time>2012-05-13T08:45:01Z</time>
      </trkpt>
      <trkpt lat="48.77083" lon="2.14659">
        <ele>90.98</ele>
        <time>2012-05-13T08:45:18Z</time>
      </trkpt>
      <trkpt lat="48.77091" lon="2.14705">
        <ele>90.98</ele>
        <time>2012-05-13T08:45:33Z</time>
      </trkpt>
      <trkpt lat="48.77106" lon="2.14732">
        <ele>92.9</ele>
        <time>2012-05-13T08:45:50Z</time>
      </trkpt>
      <trkpt lat="48.77114" lon="2.14742">
        <ele>93.39</ele>
        <time>2012-05-13T08:45:59Z</time>
      </trkpt>
      <trkpt lat="48.77139" lon="2.14749">
        <ele>94.83</ele>
        <time>2012-05-13T08:46:16Z</time>
      </trkpt>
      <trkpt lat="48.7716" lon="2.14765">
        <ele>95.31</ele>
        <time>2012-05-13T08:46:32Z</time>
      </trkpt>
      <trkpt lat="48.77172" lon="2.14768">
        <ele>95.31</ele>
        <time>2012-05-13T08:46:39Z</time>
      </trkpt>
      <trkpt lat="48.77178" lon="2.14773">
        <ele>95.31</ele>
        <time>2012-05-13T08:46:44Z</time>
      </trkpt>
      <trkpt lat="48.77198" lon="2.14787">
        <ele>96.27</ele>
        <time>2012-05-13T08:46:59Z</time>
      </trkpt>
      <trkpt lat="48.77219" lon="2.14803">
        <ele>96.75</ele>
        <time>2012-05-13T08:47:16Z</time>
      </trkpt>
      <trkpt lat="48.77218" lon="2.14813">
        <ele>97.23</ele>
        <time>2012-05-13T08:47:23Z</time>
      </trkpt>
      <trkpt lat="48.77218" lon="2.14829">
        <ele>99.15</ele>
        <time>2012-05-13T08:47:35Z</time>
      </trkpt>
      <trkpt lat="48.77224" lon="2.14849">
        <ele>101.08</ele>
        <time>2012-05-13T08:47:50Z</time>
      </trkpt>
      <trkpt lat="48.77222" lon="2.14858">
        <ele>103.48</ele>
        <time>2012-05-13T08:48:07Z</time>
      </trkpt>
      <trkpt lat="48.77222" lon="2.1486">
        <ele>103.96</ele>
        <time>2012-05-13T08:48:09Z</time>
      </trkpt>
      <trkpt lat="48.7722" lon="2.14871">
        <ele>105.4</ele>
        <time>2012-05-13T08:48:16Z</time>
      </trkpt>
      <trkpt lat="48.77217" lon="2.14879">
        <ele>109.73</ele>
        <time>2012-05-13T08:48:22Z</time>
      </trkpt>
      <trkpt lat="48.7721" lon="2.14907">
        <ele>111.65</ele>
        <time>2012-05-13T08:48:41Z</time>
      </trkpt>
      <trkpt lat="48.77214" lon="2.14932">
        <ele>114.05</ele>
        <time>2012-05-13T08:48:57Z</time>
      </trkpt>
      <trkpt lat="48.77218" lon="2.14952">
        <ele>116.94</ele>
        <time>2012-05-13T08:49:13Z</time>
      </trkpt>
      <trkpt lat="48.7722" lon="2.14966">
        <ele>119.82</ele>
        <time>2012-05-13T08:49:26Z</time>
      </trkpt>
      <trkpt lat="48.77224" lon="2.1498">
        <ele>123.19</ele>
        <time>2012-05-13T08:49:41Z</time>
      </trkpt>
      <trkpt lat="48.77225" lon="2.14996">
        <ele>126.55</ele>
        <time>2012-05-13T08:49:55Z</time>
      </trkpt>
      <trkpt lat="48.77225" lon="2.15003">
        <ele>129.43</ele>
        <time>2012-05-13T08:50:12Z</time>
      </trkpt>
      <trkpt lat="48.77224" lon="2.15009">
        <ele>133.28</ele>
        <time>2012-05-13T08:50:30Z</time>
      </trkpt>
      <trkpt lat="48.77223" lon="2.15019">
        <ele>136.16</ele>
        <time>2012-05-13T08:50:47Z</time>
      </trkpt>
      <trkpt lat="48.77224" lon="2.15031">
        <ele>140.01</ele>
        <time>2012-05-13T08:51:04Z</time>
      </trkpt>
      <trkpt lat="48.77222" lon="2.1506">
        <ele>142.41</ele>
        <time>2012-05-13T08:51:22Z</time>
      </trkpt>
      <trkpt lat="48.77221" lon="2.15089">
        <ele>144.82</ele>
        <time>2012-05-13T08:51:36Z</time>
      </trkpt>
      <trkpt lat="48.77222" lon="2.15095">
        <ele>144.82</ele>
        <time>2012-05-13T08:51:38Z</time>
      </trkpt>
      <trkpt lat="48.77232" lon="2.15139">
        <ele>146.26</ele>
        <time>2012-05-13T08:51:55Z</time>
      </trkpt>
      <trkpt lat="48.77232" lon="2.15143">
        <ele>146.26</ele>
        <time>2012-05-13T08:51:57Z</time>
      </trkpt>
      <trkpt lat="48.77236" lon="2.15167">
        <ele>147.7</ele>
        <time>2012-05-13T08:52:10Z</time>
      </trkpt>
      <trkpt lat="48.77236" lon="2.15169">
        <ele>148.18</ele>
        <time>2012-05-13T08:52:11Z</time>
      </trkpt>
      <trkpt lat="48.77241" lon="2.15189">
        <ele>149.14</ele>
        <time>2012-05-13T08:52:26Z</time>
      </trkpt>
      <trkpt lat="48.77253" lon="2.15213">
        <ele>151.06</ele>
        <time>2012-05-13T08:52:43Z</time>
      </trkpt>
      <trkpt lat="48.77263" lon="2.15232">
        <ele>151.54</ele>
        <time>2012-05-13T08:52:55Z</time>
      </trkpt>
      <trkpt lat="48.77268" lon="2.15236">
        <ele>151.54</ele>
        <time>2012-05-13T08:53:00Z</time>
      </trkpt>
      <trkpt lat="48.77279" lon="2.15247">
        <ele>152.03</ele>
        <time>2012-05-13T08:53:10Z</time>
      </trkpt>
      <trkpt lat="48.77283" lon="2.15279">
        <ele>152.51</ele>
        <time>2012-05-13T08:53:24Z</time>
      </trkpt>
      <trkpt lat="48.77295" lon="2.15296">
        <ele>153.47</ele>
        <time>2012-05-13T08:53:37Z</time>
      </trkpt>
      <trkpt lat="48.77299" lon="2.15301">
        <ele>153.47</ele>
        <time>2012-05-13T08:53:41Z</time>
      </trkpt>
      <trkpt lat="48.77307" lon="2.15325">
        <ele>153.95</ele>
        <time>2012-05-13T08:53:55Z</time>
      </trkpt>
      <trkpt lat="48.77307" lon="2.15327">
        <ele>153.95</ele>
        <time>2012-05-13T08:53:56Z</time>
      </trkpt>
      <trkpt lat="48.77312" lon="2.15356">
        <ele>155.87</ele>
        <time>2012-05-13T08:54:11Z</time>
      </trkpt>
      <trkpt lat="48.77316" lon="2.15382">
        <ele>156.35</ele>
        <time>2012-05-13T08:54:26Z</time>
      </trkpt>
      <trkpt lat="48.77317" lon="2.1539">
        <ele>156.83</ele>
        <time>2012-05-13T08:54:30Z</time>
      </trkpt>
      <trkpt lat="48.77319" lon="2.15413">
        <ele>157.79</ele>
        <time>2012-05-13T08:54:45Z</time>
      </trkpt>
      <trkpt lat="48.77321" lon="2.15447">
        <ele>158.27</ele>
        <time>2012-05-13T08:55:01Z</time>
      </trkpt>
      <trkpt lat="48.77332" lon="2.15484">
        <ele>159.72</ele>
        <time>2012-05-13T08:55:21Z</time>
      </trkpt>
      <trkpt lat="48.77346" lon="2.15497">
        <ele>160.2</ele>
        <time>2012-05-13T08:55:35Z</time>
      </trkpt>
      <trkpt lat="48.7736" lon="2.15511">
        <ele>160.68</ele>
        <time>2012-05-13T08:55:48Z</time>
      </trkpt>
      <trkpt lat="48.77368" lon="2.15522">
        <ele>160.68</ele>
        <time>2012-05-13T08:55:56Z</time>
      </trkpt>
      <trkpt lat="48.77387" lon="2.15538">
        <ele>161.16</ele>
        <time>2012-05-13T08:56:13Z</time>
      </trkpt>
      <trkpt lat="48.77404" lon="2.15554">
        <ele>162.12</ele>
        <time>2012-05-13T08:56:29Z</time>
      </trkpt>
      <trkpt lat="48.77425" lon="2.15574">
        <ele>162.6</ele>
        <time>2012-05-13T08:56:47Z</time>
      </trkpt>
      <trkpt lat="48.77447" lon="2.15594">
        <ele>163.08</ele>
        <time>2012-05-13T08:57:03Z</time>
      </trkpt>
      <trkpt lat="48.77467" lon="2.15605">
        <ele>163.08</ele>
        <time>2012-05-13T08:57:18Z</time>
      </trkpt>
      <trkpt lat="48.77474" lon="2.15613">
        <ele>163.08</ele>
        <time>2012-05-13T08:57:24Z</time>
      </trkpt>
      <trkpt lat="48.77489" lon="2.15616">
        <ele>163.56</ele>
        <time>2012-05-13T08:57:34Z</time>
      </trkpt>
      <trkpt lat="48.77494" lon="2.15619">
        <ele>163.56</ele>
        <time>2012-05-13T08:57:37Z</time>
      </trkpt>
      <trkpt lat="48.77504" lon="2.15624">
        <ele>164.04</ele>
        <time>2012-05-13T08:57:44Z</time>
      </trkpt>
      <trkpt lat="48.77516" lon="2.15629">
        <ele>164.04</ele>
        <time>2012-05-13T08:57:53Z</time>
      </trkpt>
      <trkpt lat="48.77536" lon="2.15652">
        <ele>164.52</ele>
        <time>2012-05-13T08:58:10Z</time>
      </trkpt>
      <trkpt lat="48.77553" lon="2.1566">
        <ele>164.52</ele>
        <time>2012-05-13T08:58:23Z</time>
      </trkpt>
      <trkpt lat="48.77564" lon="2.15667">
        <ele>164.52</ele>
        <time>2012-05-13T08:58:31Z</time>
      </trkpt>
      <trkpt lat="48.77586" lon="2.15681">
        <ele>165</ele>
        <time>2012-05-13T08:58:49Z</time>
      </trkpt>
      <trkpt lat="48.77592" lon="2.15686">
        <ele>165</ele>
        <time>2012-05-13T08:58:53Z</time>
      </trkpt>
      <trkpt lat="48.77607" lon="2.15703">
        <ele>165</ele>
        <time>2012-05-13T08:59:07Z</time>
      </trkpt>
      <trkpt lat="48.77627" lon="2.15715">
        <ele>165.48</ele>
        <time>2012-05-13T08:59:22Z</time>
      </trkpt>
      <trkpt lat="48.77634" lon="2.15719">
        <ele>165.48</ele>
        <time>2012-05-13T08:59:27Z</time>
      </trkpt>
      <trkpt lat="48.77639" lon="2.15721">
        <ele>165.48</ele>
        <time>2012-05-13T08:59:31Z</time>
      </trkpt>
      <trkpt lat="48.77664" lon="2.15737">
        <ele>165.48</ele>
        <time>2012-05-13T08:59:50Z</time>
      </trkpt>
      <trkpt lat="48.77682" lon="2.15756">
        <ele>165.48</ele>
        <time>2012-05-13T09:00:05Z</time>
      </trkpt>
      <trkpt lat="48.77692" lon="2.15764">
        <ele>165.48</ele>
        <time>2012-05-13T09:00:13Z</time>
      </trkpt>
      <trkpt lat="48.77712" lon="2.15779">
        <ele>165.48</ele>
        <time>2012-05-13T09:00:29Z</time>
      </trkpt>
      <trkpt lat="48.77731" lon="2.15797">
        <ele>165.48</ele>
        <time>2012-05-13T09:00:45Z</time>
      </trkpt>
      <trkpt lat="48.77749" lon="2.15811">
        <ele>165.48</ele>
        <time>2012-05-13T09:01:00Z</time>
      </trkpt>
      <trkpt lat="48.7777" lon="2.15824">
        <ele>165.48</ele>
        <time>2012-05-13T09:01:17Z</time>
      </trkpt>
      <trkpt lat="48.77787" lon="2.15836">
        <ele>165.96</ele>
        <time>2012-05-13T09:01:31Z</time>
      </trkpt>
      <trkpt lat="48.77809" lon="2.15852">
        <ele>165.96</ele>
        <time>2012-05-13T09:01:48Z</time>
      </trkpt>
      <trkpt lat="48.77828" lon="2.15866">
        <ele>165.96</ele>
        <time>2012-05-13T09:02:04Z</time>
      </trkpt>
      <trkpt lat="48.77852" lon="2.15881">
        <ele>165.96</ele>
        <time>2012-05-13T09:02:24Z</time>
      </trkpt>
      <trkpt lat="48.77878" lon="2.15908">
        <ele>165.96</ele>
        <time>2012-05-13T09:02:47Z</time>
      </trkpt>
      <trkpt lat="48.77896" lon="2.15927">
        <ele>165</ele>
        <time>2012-05-13T09:03:03Z</time>
      </trkpt>
      <trkpt lat="48.77897" lon="2.15927">
        <ele>165</ele>
        <time>2012-05-13T09:03:04Z</time>
      </trkpt>
      <trkpt lat="48.77917" lon="2.15944">
        <ele>164.04</ele>
        <time>2012-05-13T09:03:22Z</time>
      </trkpt>
      <trkpt lat="48.77922" lon="2.1595">
        <ele>164.52</ele>
        <time>2012-05-13T09:03:27Z</time>
      </trkpt>
      <trkpt lat="48.77942" lon="2.1597">
        <ele>164.52</ele>
        <time>2012-05-13T09:03:43Z</time>
      </trkpt>
      <trkpt lat="48.77942" lon="2.15972">
        <ele>164.52</ele>
        <time>2012-05-13T09:03:44Z</time>
      </trkpt>
      <trkpt lat="48.7794" lon="2.15997">
        <ele>164.52</ele>
        <time>2012-05-13T09:03:56Z</time>
      </trkpt>
      <trkpt lat="48.77936" lon="2.16015">
        <ele>164.52</ele>
        <time>2012-05-13T09:04:07Z</time>
      </trkpt>
      <trkpt lat="48.77936" lon="2.16037">
        <ele>164.52</ele>
        <time>2012-05-13T09:04:17Z</time>
      </trkpt>
      <trkpt lat="48.77932" lon="2.16069">
        <ele>165.96</ele>
        <time>2012-05-13T09:04:33Z</time>
      </trkpt>
      <trkpt lat="48.77932" lon="2.16071">
        <ele>165.96</ele>
        <time>2012-05-13T09:04:34Z</time>
      </trkpt>
      <trkpt lat="48.77931" lon="2.1608">
        <ele>165.96</ele>
        <time>2012-05-13T09:04:38Z</time>
      </trkpt>
      <trkpt lat="48.77926" lon="2.16111">
        <ele>166.45</ele>
        <time>2012-05-13T09:04:52Z</time>
      </trkpt>
      <trkpt lat="48.77922" lon="2.16137">
        <ele>166.93</ele>
        <time>2012-05-13T09:05:07Z</time>
      </trkpt>
      <trkpt lat="48.77917" lon="2.16175">
        <ele>167.41</ele>
        <time>2012-05-13T09:05:23Z</time>
      </trkpt>
      <trkpt lat="48.77913" lon="2.162">
        <ele>167.41</ele>
        <time>2012-05-13T09:05:35Z</time>
      </trkpt>
      <trkpt lat="48.77909" lon="2.1623">
        <ele>167.41</ele>
        <time>2012-05-13T09:05:49Z</time>
      </trkpt>
      <trkpt lat="48.77907" lon="2.16253">
        <ele>168.37</ele>
        <time>2012-05-13T09:06:01Z</time>
      </trkpt>
      <trkpt lat="48.77904" lon="2.16274">
        <ele>168.37</ele>
        <time>2012-05-13T09:06:11Z</time>
      </trkpt>
      <trkpt lat="48.77902" lon="2.16283">
        <ele>168.37</ele>
        <time>2012-05-13T09:06:16Z</time>
      </trkpt>
      <trkpt lat="48.77895" lon="2.16314">
        <ele>168.85</ele>
        <time>2012-05-13T09:06:32Z</time>
      </trkpt>
      <trkpt lat="48.77887" lon="2.16344">
        <ele>168.85</ele>
        <time>2012-05-13T09:06:50Z</time>
      </trkpt>
      <trkpt lat="48.77878" lon="2.16374">
        <ele>169.33</ele>
        <time>2012-05-13T09:07:03Z</time>
      </trkpt>
      <trkpt lat="48.77875" lon="2.16402">
        <ele>169.33</ele>
        <time>2012-05-13T09:07:17Z</time>
      </trkpt>
      <trkpt lat="48.77871" lon="2.16419">
        <ele>169.33</ele>
        <time>2012-05-13T09:07:26Z</time>
      </trkpt>
      <trkpt lat="48.77875" lon="2.1643">
        <ele>169.33</ele>
        <time>2012-05-13T09:07:31Z</time>
      </trkpt>
      <trkpt lat="48.77899" lon="2.16436">
        <ele>169.33</ele>
        <time>2012-05-13T09:07:47Z</time>
      </trkpt>
      <trkpt lat="48.77919" lon="2.16442">
        <ele>169.33</ele>
        <time>2012-05-13T09:08:01Z</time>
      </trkpt>
      <trkpt lat="48.77931" lon="2.16447">
        <ele>169.33</ele>
        <time>2012-05-13T09:08:11Z</time>
      </trkpt>
      <trkpt lat="48.77939" lon="2.16466">
        <ele>169.33</ele>
        <time>2012-05-13T09:08:28Z</time>
      </trkpt>
      <trkpt lat="48.77939" lon="2.16497">
        <ele>169.33</ele>
        <time>2012-05-13T09:08:43Z</time>
      </trkpt>
      <trkpt lat="48.77931" lon="2.1652">
        <ele>169.33</ele>
        <time>2012-05-13T09:08:52Z</time>
      </trkpt>
      <trkpt lat="48.77937" lon="2.16548">
        <ele>169.33</ele>
        <time>2012-05-13T09:09:06Z</time>
      </trkpt>
      <trkpt lat="48.77949" lon="2.16567">
        <ele>169.33</ele>
        <time>2012-05-13T09:09:20Z</time>
      </trkpt>
      <trkpt lat="48.77959" lon="2.16586">
        <ele>169.33</ele>
        <time>2012-05-13T09:09:34Z</time>
      </trkpt>
      <trkpt lat="48.77964" lon="2.16602">
        <ele>169.33</ele>
        <time>2012-05-13T09:09:49Z</time>
      </trkpt>
      <trkpt lat="48.77969" lon="2.16608">
        <ele>169.33</ele>
        <time>2012-05-13T09:10:05Z</time>
      </trkpt>
      <trkpt lat="48.77971" lon="2.16609">
        <ele>169.33</ele>
        <time>2012-05-13T09:10:15Z</time>
      </trkpt>
      <trkpt lat="48.77968" lon="2.16629">
        <ele>169.33</ele>
        <time>2012-05-13T09:10:30Z</time>
      </trkpt>
      <trkpt lat="48.7797" lon="2.16637">
        <ele>169.33</ele>
        <time>2012-05-13T09:10:36Z</time>
      </trkpt>
      <trkpt lat="48.77976" lon="2.16657">
        <ele>169.33</ele>
        <time>2012-05-13T09:10:45Z</time>
      </trkpt>
      <trkpt lat="48.77972" lon="2.16687">
        <ele>169.33</ele>
        <time>2012-05-13T09:10:51Z</time>
      </trkpt>
      <trkpt lat="48.77976" lon="2.16709">
        <ele>169.81</ele>
        <time>2012-05-13T09:11:06Z</time>
      </trkpt>
      <trkpt lat="48.77973" lon="2.16738">
        <ele>168.85</ele>
        <time>2012-05-13T09:11:23Z</time>
      </trkpt>
      <trkpt lat="48.77977" lon="2.16762">
        <ele>168.85</ele>
        <time>2012-05-13T09:11:35Z</time>
      </trkpt>
      <trkpt lat="48.77988" lon="2.16796">
        <ele>168.37</ele>
        <time>2012-05-13T09:11:52Z</time>
      </trkpt>
      <trkpt lat="48.77996" lon="2.16808">
        <ele>168.37</ele>
        <time>2012-05-13T09:12:05Z</time>
      </trkpt>
      <trkpt lat="48.77999" lon="2.16811">
        <ele>168.37</ele>
        <time>2012-05-13T09:12:20Z</time>
      </trkpt>
      <trkpt lat="48.78005" lon="2.16836">
        <ele>168.37</ele>
        <time>2012-05-13T09:12:36Z</time>
      </trkpt>
      <trkpt lat="48.78014" lon="2.16857">
        <ele>168.37</ele>
        <time>2012-05-13T09:12:52Z</time>
      </trkpt>
      <trkpt lat="48.78015" lon="2.16859">
        <ele>168.37</ele>
        <time>2012-05-13T09:12:54Z</time>
      </trkpt>
      <trkpt lat="48.78019" lon="2.16869">
        <ele>168.37</ele>
        <time>2012-05-13T09:12:58Z</time>
      </trkpt>
      <trkpt lat="48.78018" lon="2.1688">
        <ele>168.37</ele>
        <time>2012-05-13T09:13:02Z</time>
      </trkpt>
      <trkpt lat="48.78016" lon="2.16895">
        <ele>168.37</ele>
        <time>2012-05-13T09:13:16Z</time>
      </trkpt>
      <trkpt lat="48.78015" lon="2.16901">
        <ele>168.37</ele>
        <time>2012-05-13T09:13:36Z</time>
      </trkpt>
      <trkpt lat="48.78016" lon="2.16908">
        <ele>168.37</ele>
        <time>2012-05-13T09:13:47Z</time>
      </trkpt>
      <trkpt lat="48.78036" lon="2.16932">
        <ele>168.37</ele>
        <time>2012-05-13T09:14:05Z</time>
      </trkpt>
      <trkpt lat="48.78037" lon="2.16935">
        <ele>168.37</ele>
        <time>2012-05-13T09:14:07Z</time>
      </trkpt>
      <trkpt lat="48.78038" lon="2.16946">
        <ele>168.37</ele>
        <time>2012-05-13T09:14:12Z</time>
      </trkpt>
      <trkpt lat="48.78039" lon="2.1696">
        <ele>169.33</ele>
        <time>2012-05-13T09:14:20Z</time>
      </trkpt>
      <trkpt lat="48.78031" lon="2.17009">
        <ele>169.81</ele>
        <time>2012-05-13T09:14:39Z</time>
      </trkpt>
      <trkpt lat="48.78023" lon="2.17045">
        <ele>169.81</ele>
        <time>2012-05-13T09:14:58Z</time>
      </trkpt>
      <trkpt lat="48.78008" lon="2.17077">
        <ele>169.33</ele>
        <time>2012-05-13T09:15:18Z</time>
      </trkpt>
      <trkpt lat="48.77994" lon="2.171">
        <ele>169.33</ele>
        <time>2012-05-13T09:15:33Z</time>
      </trkpt>
      <trkpt lat="48.77977" lon="2.17114">
        <ele>169.33</ele>
        <time>2012-05-13T09:15:48Z</time>
      </trkpt>
      <trkpt lat="48.7797" lon="2.17119">
        <ele>168.37</ele>
        <time>2012-05-13T09:15:56Z</time>
      </trkpt>
      <trkpt lat="48.77953" lon="2.17134">
        <ele>168.37</ele>
        <time>2012-05-13T09:16:11Z</time>
      </trkpt>
      <trkpt lat="48.77934" lon="2.17147">
        <ele>168.37</ele>
        <time>2012-05-13T09:16:26Z</time>
      </trkpt>
      <trkpt lat="48.77926" lon="2.17173">
        <ele>167.89</ele>
        <time>2012-05-13T09:16:40Z</time>
      </trkpt>
      <trkpt lat="48.77915" lon="2.1719">
        <ele>167.89</ele>
        <time>2012-05-13T09:16:58Z</time>
      </trkpt>
      <trkpt lat="48.779" lon="2.17191">
        <ele>167.41</ele>
        <time>2012-05-13T09:17:18Z</time>
      </trkpt>
      <trkpt lat="48.77894" lon="2.17192">
        <ele>167.41</ele>
        <time>2012-05-13T09:17:21Z</time>
      </trkpt>
      <trkpt lat="48.77871" lon="2.17186">
        <ele>166.45</ele>
        <time>2012-05-13T09:17:36Z</time>
      </trkpt>
      <trkpt lat="48.77864" lon="2.17185">
        <ele>165.96</ele>
        <time>2012-05-13T09:17:41Z</time>
      </trkpt>
      <trkpt lat="48.77857" lon="2.17187">
        <ele>165.48</ele>
        <time>2012-05-13T09:17:45Z</time>
      </trkpt>
      <trkpt lat="48.77837" lon="2.17204">
        <ele>165</ele>
        <time>2012-05-13T09:17:59Z</time>
      </trkpt>
      <trkpt lat="48.77828" lon="2.1721">
        <ele>165</ele>
        <time>2012-05-13T09:18:05Z</time>
      </trkpt>
      <trkpt lat="48.77815" lon="2.17219">
        <ele>165</ele>
        <time>2012-05-13T09:18:14Z</time>
      </trkpt>
      <trkpt lat="48.77809" lon="2.17229">
        <ele>164.52</ele>
        <time>2012-05-13T09:18:23Z</time>
      </trkpt>
      <trkpt lat="48.77807" lon="2.17232">
        <ele>164.52</ele>
        <time>2012-05-13T09:18:26Z</time>
      </trkpt>
      <trkpt lat="48.778" lon="2.17237">
        <ele>165.48</ele>
        <time>2012-05-13T09:18:32Z</time>
      </trkpt>
      <trkpt lat="48.77795" lon="2.17245">
        <ele>165.96</ele>
        <time>2012-05-13T09:18:38Z</time>
      </trkpt>
      <trkpt lat="48.77784" lon="2.17259">
        <ele>166.45</ele>
        <time>2012-05-13T09:18:53Z</time>
      </trkpt>
      <trkpt lat="48.77778" lon="2.17255">
        <ele>166.45</ele>
        <time>2012-05-13T09:18:58Z</time>
      </trkpt>
      <trkpt lat="48.77765" lon="2.17268">
        <ele>165.96</ele>
        <time>2012-05-13T09:19:10Z</time>
      </trkpt>
      <trkpt lat="48.77756" lon="2.17274">
        <ele>165.96</ele>
        <time>2012-05-13T09:19:18Z</time>
      </trkpt>
      <trkpt lat="48.77749" lon="2.17276">
        <ele>165.96</ele>
        <time>2012-05-13T09:19:23Z</time>
      </trkpt>
      <trkpt lat="48.77744" lon="2.17274">
        <ele>165.96</ele>
        <time>2012-05-13T09:19:27Z</time>
      </trkpt>
      <trkpt lat="48.77728" lon="2.17278">
        <ele>165.96</ele>
        <time>2012-05-13T09:19:43Z</time>
      </trkpt>
      <trkpt lat="48.77708" lon="2.17284">
        <ele>165.48</ele>
        <time>2012-05-13T09:19:59Z</time>
      </trkpt>
      <trkpt lat="48.77689" lon="2.17296">
        <ele>165.48</ele>
        <time>2012-05-13T09:20:17Z</time>
      </trkpt>
      <trkpt lat="48.77686" lon="2.17298">
        <ele>165.48</ele>
        <time>2012-05-13T09:20:19Z</time>
      </trkpt>
      <trkpt lat="48.77666" lon="2.17314">
        <ele>165.48</ele>
        <time>2012-05-13T09:20:35Z</time>
      </trkpt>
      <trkpt lat="48.7766" lon="2.1732">
        <ele>165</ele>
        <time>2012-05-13T09:20:40Z</time>
      </trkpt>
      <trkpt lat="48.77649" lon="2.17342">
        <ele>165</ele>
        <time>2012-05-13T09:20:53Z</time>
      </trkpt>
      <trkpt lat="48.77642" lon="2.17357">
        <ele>163.56</ele>
        <time>2012-05-13T09:21:08Z</time>
      </trkpt>
      <trkpt lat="48.77629" lon="2.17381">
        <ele>162.6</ele>
        <time>2012-05-13T09:21:24Z</time>
      </trkpt>
      <trkpt lat="48.77628" lon="2.17383">
        <ele>162.6</ele>
        <time>2012-05-13T09:21:25Z</time>
      </trkpt>
      <trkpt lat="48.7762" lon="2.17401">
        <ele>161.64</ele>
        <time>2012-05-13T09:21:42Z</time>
      </trkpt>
      <trkpt lat="48.77617" lon="2.17406">
        <ele>161.16</ele>
        <time>2012-05-13T09:22:02Z</time>
      </trkpt>
      <trkpt lat="48.77615" lon="2.17408">
        <ele>161.16</ele>
        <time>2012-05-13T09:22:28Z</time>
      </trkpt>
      <trkpt lat="48.77614" lon="2.17408">
        <ele>160.68</ele>
        <time>2012-05-13T09:22:59Z</time>
      </trkpt>
      <trkpt lat="48.77614" lon="2.17409">
        <ele>160.68</ele>
        <time>2012-05-13T09:23:22Z</time>
      </trkpt>
      <trkpt lat="48.77613" lon="2.17411">
        <ele>160.68</ele>
        <time>2012-05-13T09:23:44Z</time>
      </trkpt>
      <trkpt lat="48.77614" lon="2.17411">
        <ele>160.68</ele>
        <time>2012-05-13T09:24:07Z</time>
      </trkpt>
      <trkpt lat="48.77614" lon="2.17411">
        <ele>160.68</ele>
        <time>2012-05-13T09:24:28Z</time>
      </trkpt>
      <trkpt lat="48.77614" lon="2.1741">
        <ele>160.68</ele>
        <time>2012-05-13T09:24:51Z</time>
      </trkpt>
      <trkpt lat="48.77613" lon="2.17409">
        <ele>160.68</ele>
        <time>2012-05-13T09:25:17Z</time>
      </trkpt>
      <trkpt lat="48.77613" lon="2.1741">
        <ele>160.68</ele>
        <time>2012-05-13T09:25:41Z</time>
      </trkpt>
      <trkpt lat="48.77612" lon="2.1741">
        <ele>162.12</ele>
        <time>2012-05-13T09:26:13Z</time>
      </trkpt>
      <trkpt lat="48.7761" lon="2.17412">
        <ele>162.12</ele>
        <time>2012-05-13T09:26:19Z</time>
      </trkpt>
      <trkpt lat="48.77602" lon="2.1743">
        <ele>162.12</ele>
        <time>2012-05-13T09:26:35Z</time>
      </trkpt>
      <trkpt lat="48.77596" lon="2.17442">
        <ele>160.68</ele>
        <time>2012-05-13T09:26:44Z</time>
      </trkpt>
      <trkpt lat="48.7758" lon="2.17461">
        <ele>159.72</ele>
        <time>2012-05-13T09:27:00Z</time>
      </trkpt>
      <trkpt lat="48.77563" lon="2.17467">
        <ele>159.24</ele>
        <time>2012-05-13T09:27:14Z</time>
      </trkpt>
      <trkpt lat="48.77544" lon="2.1747">
        <ele>159.72</ele>
        <time>2012-05-13T09:27:29Z</time>
      </trkpt>
      <trkpt lat="48.77527" lon="2.17476">
        <ele>159.72</ele>
        <time>2012-05-13T09:27:46Z</time>
      </trkpt>
      <trkpt lat="48.77505" lon="2.17479">
        <ele>158.27</ele>
        <time>2012-05-13T09:28:02Z</time>
      </trkpt>
      <trkpt lat="48.77489" lon="2.17493">
        <ele>155.87</ele>
        <time>2012-05-13T09:28:16Z</time>
      </trkpt>
      <trkpt lat="48.77475" lon="2.17508">
        <ele>155.87</ele>
        <time>2012-05-13T09:28:29Z</time>
      </trkpt>
      <trkpt lat="48.77458" lon="2.17526">
        <ele>157.79</ele>
        <time>2012-05-13T09:28:45Z</time>
      </trkpt>
      <trkpt lat="48.77444" lon="2.17537">
        <ele>159.24</ele>
        <time>2012-05-13T09:28:59Z</time>
      </trkpt>
      <trkpt lat="48.77442" lon="2.17543">
        <ele>159.72</ele>
        <time>2012-05-13T09:29:32Z</time>
      </trkpt>
      <trkpt lat="48.77442" lon="2.17543">
        <ele>159.72</ele>
        <time>2012-05-13T09:29:59Z</time>
      </trkpt>
      <trkpt lat="48.77443" lon="2.17543">
        <ele>159.72</ele>
        <time>2012-05-13T09:30:28Z</time>
      </trkpt>
      <trkpt lat="48.77442" lon="2.17544">
        <ele>160.2</ele>
        <time>2012-05-13T09:30:59Z</time>
      </trkpt>
      <trkpt lat="48.77442" lon="2.17544">
        <ele>160.2</ele>
        <time>2012-05-13T09:31:22Z</time>
      </trkpt>
      <trkpt lat="48.77442" lon="2.17544">
        <ele>160.2</ele>
        <time>2012-05-13T09:31:49Z</time>
      </trkpt>
      <trkpt lat="48.77441" lon="2.17545">
        <ele>160.2</ele>
        <time>2012-05-13T09:32:14Z</time>
      </trkpt>
      <trkpt lat="48.77441" lon="2.17545">
        <ele>160.2</ele>
        <time>2012-05-13T09:32:41Z</time>
      </trkpt>
      <trkpt lat="48.7744" lon="2.17546">
        <ele>160.2</ele>
        <time>2012-05-13T09:33:06Z</time>
      </trkpt>
      <trkpt lat="48.77441" lon="2.17546">
        <ele>160.2</ele>
        <time>2012-05-13T09:33:33Z</time>
      </trkpt>
      <trkpt lat="48.77442" lon="2.17545">
        <ele>160.68</ele>
        <time>2012-05-13T09:34:04Z</time>
      </trkpt>
      <trkpt lat="48.77441" lon="2.17545">
        <ele>160.68</ele>
        <time>2012-05-13T09:34:30Z</time>
      </trkpt>
      <trkpt lat="48.77439" lon="2.17547">
        <ele>160.68</ele>
        <time>2012-05-13T09:34:54Z</time>
      </trkpt>
      <trkpt lat="48.77427" lon="2.17556">
        <ele>161.16</ele>
        <time>2012-05-13T09:35:07Z</time>
      </trkpt>
      <trkpt lat="48.77419" lon="2.17561">
        <ele>161.64</ele>
        <time>2012-05-13T09:35:15Z</time>
      </trkpt>
      <trkpt lat="48.77403" lon="2.17574">
        <ele>161.64</ele>
        <time>2012-05-13T09:35:30Z</time>
      </trkpt>
      <trkpt lat="48.77388" lon="2.17594">
        <ele>162.6</ele>
        <time>2012-05-13T09:35:48Z</time>
      </trkpt>
      <trkpt lat="48.77386" lon="2.17603">
        <ele>163.56</ele>
        <time>2012-05-13T09:35:55Z</time>
      </trkpt>
      <trkpt lat="48.77389" lon="2.17619">
        <ele>164.04</ele>
        <time>2012-05-13T09:36:04Z</time>
      </trkpt>
      <trkpt lat="48.77386" lon="2.17633">
        <ele>164.04</ele>
        <time>2012-05-13T09:36:12Z</time>
      </trkpt>
      <trkpt lat="48.7737" lon="2.1765">
        <ele>164.04</ele>
        <time>2012-05-13T09:36:29Z</time>
      </trkpt>
      <trkpt lat="48.77352" lon="2.1767">
        <ele>164.04</ele>
        <time>2012-05-13T09:36:44Z</time>
      </trkpt>
      <trkpt lat="48.77333" lon="2.17688">
        <ele>164.04</ele>
        <time>2012-05-13T09:36:58Z</time>
      </trkpt>
      <trkpt lat="48.77311" lon="2.177">
        <ele>164.52</ele>
        <time>2012-05-13T09:37:14Z</time>
      </trkpt>
      <trkpt lat="48.77291" lon="2.17708">
        <ele>164.52</ele>
        <time>2012-05-13T09:37:29Z</time>
      </trkpt>
      <trkpt lat="48.77275" lon="2.17721">
        <ele>164.52</ele>
        <time>2012-05-13T09:37:44Z</time>
      </trkpt>
      <trkpt lat="48.77256" lon="2.17754">
        <ele>164.52</ele>
        <time>2012-05-13T09:38:02Z</time>
      </trkpt>
      <trkpt lat="48.77238" lon="2.17777">
        <ele>164.52</ele>
        <time>2012-05-13T09:38:18Z</time>
      </trkpt>
      <trkpt lat="48.77218" lon="2.1779">
        <ele>164.52</ele>
        <time>2012-05-13T09:38:33Z</time>
      </trkpt>
      <trkpt lat="48.7721" lon="2.178">
        <ele>164.52</ele>
        <time>2012-05-13T09:38:40Z</time>
      </trkpt>
      <trkpt lat="48.77209" lon="2.17802">
        <ele>164.52</ele>
        <time>2012-05-13T09:38:42Z</time>
      </trkpt>
      <trkpt lat="48.77193" lon="2.17819">
        <ele>164.52</ele>
        <time>2012-05-13T09:38:59Z</time>
      </trkpt>
      <trkpt lat="48.77177" lon="2.17843">
        <ele>164.04</ele>
        <time>2012-05-13T09:39:16Z</time>
      </trkpt>
      <trkpt lat="48.77159" lon="2.17868">
        <ele>164.04</ele>
        <time>2012-05-13T09:39:33Z</time>
      </trkpt>
      <trkpt lat="48.77141" lon="2.17892">
        <ele>162.6</ele>
        <time>2012-05-13T09:39:50Z</time>
      </trkpt>
      <trkpt lat="48.77138" lon="2.17896">
        <ele>162.6</ele>
        <time>2012-05-13T09:39:53Z</time>
      </trkpt>
      <trkpt lat="48.77118" lon="2.17923">
        <ele>161.16</ele>
        <time>2012-05-13T09:40:11Z</time>
      </trkpt>
      <trkpt lat="48.77118" lon="2.17925">
        <ele>161.16</ele>
        <time>2012-05-13T09:40:12Z</time>
      </trkpt>
      <trkpt lat="48.77119" lon="2.17953">
        <ele>157.79</ele>
        <time>2012-05-13T09:40:28Z</time>
      </trkpt>
      <trkpt lat="48.77119" lon="2.17974">
        <ele>155.87</ele>
        <time>2012-05-13T09:40:40Z</time>
      </trkpt>
      <trkpt lat="48.77121" lon="2.17978">
        <ele>154.43</ele>
        <time>2012-05-13T09:40:42Z</time>
      </trkpt>
      <trkpt lat="48.77125" lon="2.17984">
        <ele>153.95</ele>
        <time>2012-05-13T09:40:46Z</time>
      </trkpt>
      <trkpt lat="48.77129" lon="2.17994">
        <ele>153.47</ele>
        <time>2012-05-13T09:40:50Z</time>
      </trkpt>
      <trkpt lat="48.77138" lon="2.18025">
        <ele>152.51</ele>
        <time>2012-05-13T09:41:06Z</time>
      </trkpt>
      <trkpt lat="48.77148" lon="2.18037">
        <ele>152.51</ele>
        <time>2012-05-13T09:41:16Z</time>
      </trkpt>
      <trkpt lat="48.77152" lon="2.18044">
        <ele>152.51</ele>
        <time>2012-05-13T09:41:20Z</time>
      </trkpt>
      <trkpt lat="48.77158" lon="2.18049">
        <ele>152.51</ele>
        <time>2012-05-13T09:41:25Z</time>
      </trkpt>
      <trkpt lat="48.77167" lon="2.18066">
        <ele>153.47</ele>
        <time>2012-05-13T09:41:36Z</time>
      </trkpt>
      <trkpt lat="48.77157" lon="2.18091">
        <ele>153.47</ele>
        <time>2012-05-13T09:41:50Z</time>
      </trkpt>
      <trkpt lat="48.77155" lon="2.18123">
        <ele>153.95</ele>
        <time>2012-05-13T09:42:05Z</time>
      </trkpt>
      <trkpt lat="48.77158" lon="2.1814">
        <ele>153.95</ele>
        <time>2012-05-13T09:42:12Z</time>
      </trkpt>
      <trkpt lat="48.77161" lon="2.18161">
        <ele>153.95</ele>
        <time>2012-05-13T09:42:22Z</time>
      </trkpt>
      <trkpt lat="48.77148" lon="2.18179">
        <ele>154.43</ele>
        <time>2012-05-13T09:42:37Z</time>
      </trkpt>
      <trkpt lat="48.77143" lon="2.18193">
        <ele>154.91</ele>
        <time>2012-05-13T09:42:45Z</time>
      </trkpt>
      <trkpt lat="48.77141" lon="2.18198">
        <ele>154.91</ele>
        <time>2012-05-13T09:42:48Z</time>
      </trkpt>
      <trkpt lat="48.77141" lon="2.18205">
        <ele>155.39</ele>
        <time>2012-05-13T09:42:52Z</time>
      </trkpt>
      <trkpt lat="48.77146" lon="2.18223">
        <ele>157.31</ele>
        <time>2012-05-13T09:43:08Z</time>
      </trkpt>
      <trkpt lat="48.77151" lon="2.18242">
        <ele>160.2</ele>
        <time>2012-05-13T09:43:28Z</time>
      </trkpt>
      <trkpt lat="48.77159" lon="2.18254">
        <ele>161.16</ele>
        <time>2012-05-13T09:43:37Z</time>
      </trkpt>
      <trkpt lat="48.77162" lon="2.18259">
        <ele>161.64</ele>
        <time>2012-05-13T09:43:41Z</time>
      </trkpt>
      <trkpt lat="48.77178" lon="2.18282">
        <ele>161.64</ele>
        <time>2012-05-13T09:43:58Z</time>
      </trkpt>
      <trkpt lat="48.77181" lon="2.1829">
        <ele>162.12</ele>
        <time>2012-05-13T09:44:03Z</time>
      </trkpt>
      <trkpt lat="48.77188" lon="2.18313">
        <ele>162.6</ele>
        <time>2012-05-13T09:44:18Z</time>
      </trkpt>
      <trkpt lat="48.77193" lon="2.18332">
        <ele>162.6</ele>
        <time>2012-05-13T09:44:29Z</time>
      </trkpt>
      <trkpt lat="48.77188" lon="2.18344">
        <ele>163.08</ele>
        <time>2012-05-13T09:44:36Z</time>
      </trkpt>
      <trkpt lat="48.77168" lon="2.18369">
        <ele>163.08</ele>
        <time>2012-05-13T09:44:56Z</time>
      </trkpt>
      <trkpt lat="48.77154" lon="2.18398">
        <ele>161.64</ele>
        <time>2012-05-13T09:45:14Z</time>
      </trkpt>
      <trkpt lat="48.77143" lon="2.1842">
        <ele>161.64</ele>
        <time>2012-05-13T09:45:28Z</time>
      </trkpt>
      <trkpt lat="48.77121" lon="2.18436">
        <ele>161.16</ele>
        <time>2012-05-13T09:45:45Z</time>
      </trkpt>
      <trkpt lat="48.77104" lon="2.18445">
        <ele>161.16</ele>
        <time>2012-05-13T09:45:58Z</time>
      </trkpt>
      <trkpt lat="48.77098" lon="2.18454">
        <ele>161.16</ele>
        <time>2012-05-13T09:46:04Z</time>
      </trkpt>
      <trkpt lat="48.77091" lon="2.18484">
        <ele>162.12</ele>
        <time>2012-05-13T09:46:20Z</time>
      </trkpt>
      <trkpt lat="48.7709" lon="2.18493">
        <ele>162.6</ele>
        <time>2012-05-13T09:46:25Z</time>
      </trkpt>
      <trkpt lat="48.77092" lon="2.18519">
        <ele>163.08</ele>
        <time>2012-05-13T09:46:39Z</time>
      </trkpt>
      <trkpt lat="48.77094" lon="2.18533">
        <ele>163.56</ele>
        <time>2012-05-13T09:46:45Z</time>
      </trkpt>
      <trkpt lat="48.77101" lon="2.18558">
        <ele>163.56</ele>
        <time>2012-05-13T09:47:00Z</time>
      </trkpt>
      <trkpt lat="48.77099" lon="2.18592">
        <ele>164.04</ele>
        <time>2012-05-13T09:47:14Z</time>
      </trkpt>
      <trkpt lat="48.77093" lon="2.18623">
        <ele>164.04</ele>
        <time>2012-05-13T09:47:29Z</time>
      </trkpt>
      <trkpt lat="48.77085" lon="2.18653">
        <ele>163.56</ele>
        <time>2012-05-13T09:47:45Z</time>
      </trkpt>
      <trkpt lat="48.77075" lon="2.18689">
        <ele>163.56</ele>
        <time>2012-05-13T09:48:04Z</time>
      </trkpt>
      <trkpt lat="48.77067" lon="2.18732">
        <ele>163.56</ele>
        <time>2012-05-13T09:48:21Z</time>
      </trkpt>
      <trkpt lat="48.77067" lon="2.18737">
        <ele>163.56</ele>
        <time>2012-05-13T09:48:23Z</time>
      </trkpt>
      <trkpt lat="48.77066" lon="2.1874">
        <ele>163.56</ele>
        <time>2012-05-13T09:48:25Z</time>
      </trkpt>
      <trkpt lat="48.77062" lon="2.18759">
        <ele>163.56</ele>
        <time>2012-05-13T09:48:35Z</time>
      </trkpt>
      <trkpt lat="48.77054" lon="2.18797">
        <ele>163.56</ele>
        <time>2012-05-13T09:48:53Z</time>
      </trkpt>
      <trkpt lat="48.77044" lon="2.18827">
        <ele>163.56</ele>
        <time>2012-05-13T09:49:08Z</time>
      </trkpt>
      <trkpt lat="48.77037" lon="2.18857">
        <ele>163.56</ele>
        <time>2012-05-13T09:49:23Z</time>
      </trkpt>
      <trkpt lat="48.77032" lon="2.18885">
        <ele>163.56</ele>
        <time>2012-05-13T09:49:39Z</time>
      </trkpt>
      <trkpt lat="48.77025" lon="2.18911">
        <ele>163.56</ele>
        <time>2012-05-13T09:49:53Z</time>
      </trkpt>
      <trkpt lat="48.7702" lon="2.1894">
        <ele>163.56</ele>
        <time>2012-05-13T09:50:05Z</time>
      </trkpt>
      <trkpt lat="48.77011" lon="2.18976">
        <ele>163.56</ele>
        <time>2012-05-13T09:50:24Z</time>
      </trkpt>
      <trkpt lat="48.77006" lon="2.19004">
        <ele>163.08</ele>
        <time>2012-05-13T09:50:39Z</time>
      </trkpt>
      <trkpt lat="48.76996" lon="2.19048">
        <ele>163.08</ele>
        <time>2012-05-13T09:50:58Z</time>
      </trkpt>
      <trkpt lat="48.76991" lon="2.19078">
        <ele>163.08</ele>
        <time>2012-05-13T09:51:13Z</time>
      </trkpt>
      <trkpt lat="48.76986" lon="2.19094">
        <ele>163.08</ele>
        <time>2012-05-13T09:51:23Z</time>
      </trkpt>
      <trkpt lat="48.76984" lon="2.19107">
        <ele>163.08</ele>
        <time>2012-05-13T09:51:31Z</time>
      </trkpt>
      <trkpt lat="48.76974" lon="2.19115">
        <ele>163.08</ele>
        <time>2012-05-13T09:51:40Z</time>
      </trkpt>
      <trkpt lat="48.76951" lon="2.1913">
        <ele>163.08</ele>
        <time>2012-05-13T09:51:57Z</time>
      </trkpt>
      <trkpt lat="48.76932" lon="2.19141">
        <ele>162.12</ele>
        <time>2012-05-13T09:52:13Z</time>
      </trkpt>
      <trkpt lat="48.76907" lon="2.19155">
        <ele>161.64</ele>
        <time>2012-05-13T09:52:33Z</time>
      </trkpt>
      <trkpt lat="48.76889" lon="2.19161">
        <ele>161.64</ele>
        <time>2012-05-13T09:52:48Z</time>
      </trkpt>
      <trkpt lat="48.76871" lon="2.19164">
        <ele>161.64</ele>
        <time>2012-05-13T09:53:01Z</time>
      </trkpt>
      <trkpt lat="48.76847" lon="2.19167">
        <ele>161.64</ele>
        <time>2012-05-13T09:53:17Z</time>
      </trkpt>
      <trkpt lat="48.76827" lon="2.19172">
        <ele>161.16</ele>
        <time>2012-05-13T09:53:33Z</time>
      </trkpt>
      <trkpt lat="48.768" lon="2.19172">
        <ele>161.16</ele>
        <time>2012-05-13T09:53:53Z</time>
      </trkpt>
      <trkpt lat="48.76781" lon="2.19172">
        <ele>161.16</ele>
        <time>2012-05-13T09:54:06Z</time>
      </trkpt>
      <trkpt lat="48.76754" lon="2.19169">
        <ele>160.68</ele>
        <time>2012-05-13T09:54:23Z</time>
      </trkpt>
      <trkpt lat="48.76722" lon="2.19172">
        <ele>160.68</ele>
        <time>2012-05-13T09:54:44Z</time>
      </trkpt>
      <trkpt lat="48.76708" lon="2.19177">
        <ele>160.2</ele>
        <time>2012-05-13T09:54:53Z</time>
      </trkpt>
      <trkpt lat="48.76689" lon="2.19201">
        <ele>160.2</ele>
        <time>2012-05-13T09:55:11Z</time>
      </trkpt>
      <trkpt lat="48.76675" lon="2.19236">
        <ele>160.2</ele>
        <time>2012-05-13T09:55:31Z</time>
      </trkpt>
      <trkpt lat="48.76659" lon="2.19262">
        <ele>160.2</ele>
        <time>2012-05-13T09:55:49Z</time>
      </trkpt>
      <trkpt lat="48.76648" lon="2.19289">
        <ele>160.2</ele>
        <time>2012-05-13T09:56:05Z</time>
      </trkpt>
      <trkpt lat="48.76632" lon="2.1932">
        <ele>160.2</ele>
        <time>2012-05-13T09:56:23Z</time>
      </trkpt>
      <trkpt lat="48.76627" lon="2.19353">
        <ele>160.2</ele>
        <time>2012-05-13T09:56:40Z</time>
      </trkpt>
      <trkpt lat="48.76635" lon="2.1939">
        <ele>160.2</ele>
        <time>2012-05-13T09:56:59Z</time>
      </trkpt>
      <trkpt lat="48.76637" lon="2.19427">
        <ele>161.16</ele>
        <time>2012-05-13T09:57:17Z</time>
      </trkpt>
      <trkpt lat="48.76636" lon="2.19468">
        <ele>161.16</ele>
        <time>2012-05-13T09:57:36Z</time>
      </trkpt>
      <trkpt lat="48.76633" lon="2.19513">
        <ele>161.16</ele>
        <time>2012-05-13T09:57:57Z</time>
      </trkpt>
      <trkpt lat="48.76629" lon="2.19558">
        <ele>161.16</ele>
        <time>2012-05-13T09:58:19Z</time>
      </trkpt>
      <trkpt lat="48.76622" lon="2.19588">
        <ele>161.16</ele>
        <time>2012-05-13T09:58:36Z</time>
      </trkpt>
      <trkpt lat="48.76602" lon="2.19575">
        <ele>161.16</ele>
        <time>2012-05-13T09:58:53Z</time>
      </trkpt>
      <trkpt lat="48.76581" lon="2.19555">
        <ele>161.16</ele>
        <time>2012-05-13T09:59:11Z</time>
      </trkpt>
      <trkpt lat="48.76569" lon="2.19543">
        <ele>160.2</ele>
        <time>2012-05-13T09:59:24Z</time>
      </trkpt>
      <trkpt lat="48.76547" lon="2.19526">
        <ele>158.27</ele>
        <time>2012-05-13T09:59:46Z</time>
      </trkpt>
      <trkpt lat="48.76539" lon="2.19516">
        <ele>154.43</ele>
        <time>2012-05-13T10:00:04Z</time>
      </trkpt>
      <trkpt lat="48.76531" lon="2.19507">
        <ele>152.03</ele>
        <time>2012-05-13T10:00:18Z</time>
      </trkpt>
      <trkpt lat="48.76521" lon="2.19519">
        <ele>151.54</ele>
        <time>2012-05-13T10:00:31Z</time>
      </trkpt>
      <trkpt lat="48.76508" lon="2.19538">
        <ele>153.47</ele>
        <time>2012-05-13T10:00:47Z</time>
      </trkpt>
      <trkpt lat="48.765" lon="2.19543">
        <ele>153.95</ele>
        <time>2012-05-13T10:00:53Z</time>
      </trkpt>
      <trkpt lat="48.76482" lon="2.19562">
        <ele>155.87</ele>
        <time>2012-05-13T10:01:10Z</time>
      </trkpt>
      <trkpt lat="48.76471" lon="2.19578">
        <ele>156.35</ele>
        <time>2012-05-13T10:01:22Z</time>
      </trkpt>
      <trkpt lat="48.76457" lon="2.19592">
        <ele>156.35</ele>
        <time>2012-05-13T10:01:35Z</time>
      </trkpt>
      <trkpt lat="48.76446" lon="2.19599">
        <ele>156.35</ele>
        <time>2012-05-13T10:01:44Z</time>
      </trkpt>
      <trkpt lat="48.76433" lon="2.196">
        <ele>156.35</ele>
        <time>2012-05-13T10:01:56Z</time>
      </trkpt>
      <trkpt lat="48.76412" lon="2.19605">
        <ele>156.35</ele>
        <time>2012-05-13T10:02:12Z</time>
      </trkpt>
      <trkpt lat="48.76391" lon="2.19615">
        <ele>154.91</ele>
        <time>2012-05-13T10:02:27Z</time>
      </trkpt>
      <trkpt lat="48.7638" lon="2.19617">
        <ele>154.43</ele>
        <time>2012-05-13T10:02:38Z</time>
      </trkpt>
      <trkpt lat="48.76373" lon="2.19609">
        <ele>152.51</ele>
        <time>2012-05-13T10:02:54Z</time>
      </trkpt>
      <trkpt lat="48.76361" lon="2.19612">
        <ele>150.58</ele>
        <time>2012-05-13T10:03:09Z</time>
      </trkpt>
      <trkpt lat="48.76357" lon="2.19614">
        <ele>150.58</ele>
        <time>2012-05-13T10:03:13Z</time>
      </trkpt>
      <trkpt lat="48.76344" lon="2.19619">
        <ele>149.14</ele>
        <time>2012-05-13T10:03:23Z</time>
      </trkpt>
      <trkpt lat="48.76325" lon="2.19637">
        <ele>147.22</ele>
        <time>2012-05-13T10:03:38Z</time>
      </trkpt>
      <trkpt lat="48.76307" lon="2.19654">
        <ele>145.3</ele>
        <time>2012-05-13T10:03:52Z</time>
      </trkpt>
      <trkpt lat="48.76304" lon="2.19661">
        <ele>144.82</ele>
        <time>2012-05-13T10:03:57Z</time>
      </trkpt>
      <trkpt lat="48.76298" lon="2.19676">
        <ele>144.82</ele>
        <time>2012-05-13T10:04:06Z</time>
      </trkpt>
      <trkpt lat="48.76293" lon="2.19705">
        <ele>144.82</ele>
        <time>2012-05-13T10:04:22Z</time>
      </trkpt>
      <trkpt lat="48.76289" lon="2.19718">
        <ele>146.26</ele>
        <time>2012-05-13T10:04:29Z</time>
      </trkpt>
      <trkpt lat="48.76285" lon="2.19751">
        <ele>146.26</ele>
        <time>2012-05-13T10:04:47Z</time>
      </trkpt>
      <trkpt lat="48.76284" lon="2.19765">
        <ele>145.78</ele>
        <time>2012-05-13T10:04:55Z</time>
      </trkpt>
      <trkpt lat="48.76286" lon="2.19776">
        <ele>145.78</ele>
        <time>2012-05-13T10:04:59Z</time>
      </trkpt>
      <trkpt lat="48.76302" lon="2.19783">
        <ele>145.3</ele>
        <time>2012-05-13T10:05:15Z</time>
      </trkpt>
      <trkpt lat="48.76321" lon="2.1978">
        <ele>145.3</ele>
        <time>2012-05-13T10:05:32Z</time>
      </trkpt>
      <trkpt lat="48.7634" lon="2.19776">
        <ele>146.26</ele>
        <time>2012-05-13T10:05:47Z</time>
      </trkpt>
      <trkpt lat="48.76368" lon="2.19785">
        <ele>148.66</ele>
        <time>2012-05-13T10:06:09Z</time>
      </trkpt>
      <trkpt lat="48.76391" lon="2.19792">
        <ele>149.62</ele>
        <time>2012-05-13T10:06:27Z</time>
      </trkpt>
      <trkpt lat="48.76413" lon="2.19792">
        <ele>151.06</ele>
        <time>2012-05-13T10:06:45Z</time>
      </trkpt>
      <trkpt lat="48.76434" lon="2.19778">
        <ele>152.51</ele>
        <time>2012-05-13T10:07:03Z</time>
      </trkpt>
      <trkpt lat="48.7646" lon="2.19773">
        <ele>153.47</ele>
        <time>2012-05-13T10:07:23Z</time>
      </trkpt>
      <trkpt lat="48.76476" lon="2.19786">
        <ele>153.95</ele>
        <time>2012-05-13T10:07:38Z</time>
      </trkpt>
      <trkpt lat="48.76481" lon="2.19815">
        <ele>152.99</ele>
        <time>2012-05-13T10:07:55Z</time>
      </trkpt>
      <trkpt lat="48.76488" lon="2.19844">
        <ele>151.54</ele>
        <time>2012-05-13T10:08:14Z</time>
      </trkpt>
      <trkpt lat="48.76496" lon="2.19876">
        <ele>151.06</ele>
        <time>2012-05-13T10:08:32Z</time>
      </trkpt>
      <trkpt lat="48.76489" lon="2.19906">
        <ele>151.06</ele>
        <time>2012-05-13T10:08:47Z</time>
      </trkpt>
      <trkpt lat="48.76482" lon="2.19919">
        <ele>151.06</ele>
        <time>2012-05-13T10:08:58Z</time>
      </trkpt>
      <trkpt lat="48.76466" lon="2.19933">
        <ele>151.06</ele>
        <time>2012-05-13T10:09:14Z</time>
      </trkpt>
      <trkpt lat="48.7645" lon="2.19937">
        <ele>152.51</ele>
        <time>2012-05-13T10:09:28Z</time>
      </trkpt>
      <trkpt lat="48.76429" lon="2.19955">
        <ele>152.51</ele>
        <time>2012-05-13T10:09:48Z</time>
      </trkpt>
      <trkpt lat="48.76407" lon="2.19972">
        <ele>151.06</ele>
        <time>2012-05-13T10:10:06Z</time>
      </trkpt>
      <trkpt lat="48.76388" lon="2.19985">
        <ele>149.62</ele>
        <time>2012-05-13T10:10:23Z</time>
      </trkpt>
      <trkpt lat="48.76362" lon="2.20005">
        <ele>147.22</ele>
        <time>2012-05-13T10:10:43Z</time>
      </trkpt>
      <trkpt lat="48.76348" lon="2.20026">
        <ele>146.74</ele>
        <time>2012-05-13T10:10:58Z</time>
      </trkpt>
      <trkpt lat="48.76347" lon="2.20027">
        <ele>146.26</ele>
        <time>2012-05-13T10:10:59Z</time>
      </trkpt>
      <trkpt lat="48.76341" lon="2.20036">
        <ele>146.26</ele>
        <time>2012-05-13T10:11:06Z</time>
      </trkpt>
      <trkpt lat="48.76337" lon="2.20056">
        <ele>145.78</ele>
        <time>2012-05-13T10:11:20Z</time>
      </trkpt>
      <trkpt lat="48.76338" lon="2.20085">
        <ele>147.22</ele>
        <time>2012-05-13T10:11:37Z</time>
      </trkpt>
      <trkpt lat="48.76341" lon="2.20115">
        <ele>148.18</ele>
        <time>2012-05-13T10:11:53Z</time>
      </trkpt>
      <trkpt lat="48.76346" lon="2.20137">
        <ele>149.14</ele>
        <time>2012-05-13T10:12:04Z</time>
      </trkpt>
      <trkpt lat="48.76351" lon="2.20165">
        <ele>150.58</ele>
        <time>2012-05-13T10:12:20Z</time>
      </trkpt>
      <trkpt lat="48.7635" lon="2.20192">
        <ele>152.51</ele>
        <time>2012-05-13T10:12:38Z</time>
      </trkpt>
      <trkpt lat="48.76334" lon="2.20204">
        <ele>152.03</ele>
        <time>2012-05-13T10:12:56Z</time>
      </trkpt>
      <trkpt lat="48.76325" lon="2.20224">
        <ele>150.58</ele>
        <time>2012-05-13T10:13:14Z</time>
      </trkpt>
      <trkpt lat="48.76323" lon="2.20232">
        <ele>150.58</ele>
        <time>2012-05-13T10:13:22Z</time>
      </trkpt>
      <trkpt lat="48.76316" lon="2.20241">
        <ele>152.03</ele>
        <time>2012-05-13T10:13:28Z</time>
      </trkpt>
      <trkpt lat="48.76317" lon="2.2025">
        <ele>152.03</ele>
        <time>2012-05-13T10:13:34Z</time>
      </trkpt>
      <trkpt lat="48.76323" lon="2.20264">
        <ele>153.47</ele>
        <time>2012-05-13T10:13:49Z</time>
      </trkpt>
      <trkpt lat="48.76313" lon="2.20277">
        <ele>154.91</ele>
        <time>2012-05-13T10:14:03Z</time>
      </trkpt>
      <trkpt lat="48.7631" lon="2.2028">
        <ele>154.91</ele>
        <time>2012-05-13T10:14:05Z</time>
      </trkpt>
      <trkpt lat="48.76293" lon="2.20293">
        <ele>155.39</ele>
        <time>2012-05-13T10:14:21Z</time>
      </trkpt>
      <trkpt lat="48.7629" lon="2.20293">
        <ele>155.39</ele>
        <time>2012-05-13T10:14:23Z</time>
      </trkpt>
      <trkpt lat="48.76269" lon="2.20305">
        <ele>155.39</ele>
        <time>2012-05-13T10:14:42Z</time>
      </trkpt>
      <trkpt lat="48.76252" lon="2.20316">
        <ele>155.39</ele>
        <time>2012-05-13T10:14:58Z</time>
      </trkpt>
      <trkpt lat="48.76237" lon="2.20324">
        <ele>154.91</ele>
        <time>2012-05-13T10:15:10Z</time>
      </trkpt>
      <trkpt lat="48.76225" lon="2.20329">
        <ele>154.91</ele>
        <time>2012-05-13T10:15:20Z</time>
      </trkpt>
      <trkpt lat="48.76208" lon="2.20335">
        <ele>154.91</ele>
        <time>2012-05-13T10:15:36Z</time>
      </trkpt>
      <trkpt lat="48.76181" lon="2.20332">
        <ele>155.87</ele>
        <time>2012-05-13T10:15:51Z</time>
      </trkpt>
      <trkpt lat="48.7617" lon="2.20329">
        <ele>156.35</ele>
        <time>2012-05-13T10:15:58Z</time>
      </trkpt>
      <trkpt lat="48.76142" lon="2.20332">
        <ele>157.79</ele>
        <time>2012-05-13T10:16:17Z</time>
      </trkpt>
      <trkpt lat="48.7612" lon="2.20336">
        <ele>158.27</ele>
        <time>2012-05-13T10:16:34Z</time>
      </trkpt>
      <trkpt lat="48.76101" lon="2.20339">
        <ele>158.27</ele>
        <time>2012-05-13T10:16:50Z</time>
      </trkpt>
      <trkpt lat="48.76078" lon="2.20345">
        <ele>158.27</ele>
        <time>2012-05-13T10:17:07Z</time>
      </trkpt>
      <trkpt lat="48.76055" lon="2.2035">
        <ele>158.27</ele>
        <time>2012-05-13T10:17:25Z</time>
      </trkpt>
      <trkpt lat="48.76052" lon="2.20353">
        <ele>158.27</ele>
        <time>2012-05-13T10:17:28Z</time>
      </trkpt>
      <trkpt lat="48.7603" lon="2.20363">
        <ele>158.27</ele>
        <time>2012-05-13T10:17:45Z</time>
      </trkpt>
      <trkpt lat="48.76019" lon="2.20365">
        <ele>158.27</ele>
        <time>2012-05-13T10:17:52Z</time>
      </trkpt>
      <trkpt lat="48.76004" lon="2.20392">
        <ele>158.75</ele>
        <time>2012-05-13T10:18:08Z</time>
      </trkpt>
      <trkpt lat="48.75992" lon="2.20419">
        <ele>159.24</ele>
        <time>2012-05-13T10:18:23Z</time>
      </trkpt>
      <trkpt lat="48.75985" lon="2.20432">
        <ele>159.24</ele>
        <time>2012-05-13T10:18:29Z</time>
      </trkpt>
      <trkpt lat="48.75968" lon="2.20449">
        <ele>159.24</ele>
        <time>2012-05-13T10:18:45Z</time>
      </trkpt>
      <trkpt lat="48.75957" lon="2.20473">
        <ele>158.27</ele>
        <time>2012-05-13T10:18:59Z</time>
      </trkpt>
      <trkpt lat="48.75951" lon="2.20495">
        <ele>156.35</ele>
        <time>2012-05-13T10:19:13Z</time>
      </trkpt>
      <trkpt lat="48.7595" lon="2.205">
        <ele>156.35</ele>
        <time>2012-05-13T10:19:15Z</time>
      </trkpt>
      <trkpt lat="48.75943" lon="2.20524">
        <ele>155.39</ele>
        <time>2012-05-13T10:19:30Z</time>
      </trkpt>
      <trkpt lat="48.75933" lon="2.20552">
        <ele>153.47</ele>
        <time>2012-05-13T10:19:47Z</time>
      </trkpt>
      <trkpt lat="48.75924" lon="2.20582">
        <ele>151.54</ele>
        <time>2012-05-13T10:20:04Z</time>
      </trkpt>
      <trkpt lat="48.75918" lon="2.20597">
        <ele>151.06</ele>
        <time>2012-05-13T10:20:13Z</time>
      </trkpt>
      <trkpt lat="48.75912" lon="2.20631">
        <ele>149.62</ele>
        <time>2012-05-13T10:20:30Z</time>
      </trkpt>
      <trkpt lat="48.75909" lon="2.20639">
        <ele>149.62</ele>
        <time>2012-05-13T10:20:35Z</time>
      </trkpt>
      <trkpt lat="48.75902" lon="2.20668">
        <ele>149.62</ele>
        <time>2012-05-13T10:20:51Z</time>
      </trkpt>
      <trkpt lat="48.75895" lon="2.20692">
        <ele>149.62</ele>
        <time>2012-05-13T10:21:04Z</time>
      </trkpt>
      <trkpt lat="48.75883" lon="2.20721">
        <ele>148.18</ele>
        <time>2012-05-13T10:21:20Z</time>
      </trkpt>
      <trkpt lat="48.75879" lon="2.20747">
        <ele>147.7</ele>
        <time>2012-05-13T10:21:34Z</time>
      </trkpt>
      <trkpt lat="48.75879" lon="2.20789">
        <ele>147.7</ele>
        <time>2012-05-13T10:21:50Z</time>
      </trkpt>
      <trkpt lat="48.75876" lon="2.20796">
        <ele>147.7</ele>
        <time>2012-05-13T10:21:54Z</time>
      </trkpt>
      <trkpt lat="48.7587" lon="2.20813">
        <ele>146.74</ele>
        <time>2012-05-13T10:22:04Z</time>
      </trkpt>
      <trkpt lat="48.75868" lon="2.20833">
        <ele>146.74</ele>
        <time>2012-05-13T10:22:13Z</time>
      </trkpt>
      <trkpt lat="48.75862" lon="2.20864">
        <ele>146.26</ele>
        <time>2012-05-13T10:22:28Z</time>
      </trkpt>
      <trkpt lat="48.75866" lon="2.20879">
        <ele>145.78</ele>
        <time>2012-05-13T10:22:40Z</time>
      </trkpt>
      <trkpt lat="48.75871" lon="2.20903">
        <ele>145.3</ele>
        <time>2012-05-13T10:22:54Z</time>
      </trkpt>
      <trkpt lat="48.75871" lon="2.20915">
        <ele>145.3</ele>
        <time>2012-05-13T10:23:00Z</time>
      </trkpt>
      <trkpt lat="48.75866" lon="2.2095">
        <ele>146.74</ele>
        <time>2012-05-13T10:23:16Z</time>
      </trkpt>
      <trkpt lat="48.75865" lon="2.20957">
        <ele>146.74</ele>
        <time>2012-05-13T10:23:20Z</time>
      </trkpt>
      <trkpt lat="48.75859" lon="2.20984">
        <ele>145.3</ele>
        <time>2012-05-13T10:23:35Z</time>
      </trkpt>
      <trkpt lat="48.75858" lon="2.20986">
        <ele>144.82</ele>
        <time>2012-05-13T10:23:36Z</time>
      </trkpt>
      <trkpt lat="48.75858" lon="2.21013">
        <ele>143.85</ele>
        <time>2012-05-13T10:23:51Z</time>
      </trkpt>
      <trkpt lat="48.75859" lon="2.21034">
        <ele>142.89</ele>
        <time>2012-05-13T10:24:05Z</time>
      </trkpt>
      <trkpt lat="48.75856" lon="2.21058">
        <ele>142.89</ele>
        <time>2012-05-13T10:24:19Z</time>
      </trkpt>
      <trkpt lat="48.75854" lon="2.21077">
        <ele>142.89</ele>
        <time>2012-05-13T10:24:31Z</time>
      </trkpt>
      <trkpt lat="48.75849" lon="2.21106">
        <ele>142.89</ele>
        <time>2012-05-13T10:24:46Z</time>
      </trkpt>
      <trkpt lat="48.75843" lon="2.21126">
        <ele>142.89</ele>
        <time>2012-05-13T10:24:58Z</time>
      </trkpt>
      <trkpt lat="48.75838" lon="2.21148">
        <ele>142.89</ele>
        <time>2012-05-13T10:25:12Z</time>
      </trkpt>
      <trkpt lat="48.75828" lon="2.21174">
        <ele>143.37</ele>
        <time>2012-05-13T10:25:29Z</time>
      </trkpt>
      <trkpt lat="48.75825" lon="2.21189">
        <ele>143.37</ele>
        <time>2012-05-13T10:25:39Z</time>
      </trkpt>
      <trkpt lat="48.75817" lon="2.21215">
        <ele>143.37</ele>
        <time>2012-05-13T10:25:56Z</time>
      </trkpt>
      <trkpt lat="48.7581" lon="2.2124">
        <ele>143.37</ele>
        <time>2012-05-13T10:26:11Z</time>
      </trkpt>
      <trkpt lat="48.75809" lon="2.21266">
        <ele>144.34</ele>
        <time>2012-05-13T10:26:24Z</time>
      </trkpt>
      <trkpt lat="48.75815" lon="2.21288">
        <ele>146.26</ele>
        <time>2012-05-13T10:26:39Z</time>
      </trkpt>
      <trkpt lat="48.75822" lon="2.213">
        <ele>148.18</ele>
        <time>2012-05-13T10:26:52Z</time>
      </trkpt>
      <trkpt lat="48.75828" lon="2.2131">
        <ele>149.14</ele>
        <time>2012-05-13T10:27:01Z</time>
      </trkpt>
      <trkpt lat="48.75839" lon="2.21328">
        <ele>150.58</ele>
        <time>2012-05-13T10:27:15Z</time>
      </trkpt>
      <trkpt lat="48.75846" lon="2.21332">
        <ele>152.03</ele>
        <time>2012-05-13T10:27:22Z</time>
      </trkpt>
      <trkpt lat="48.75861" lon="2.21354">
        <ele>152.03</ele>
        <time>2012-05-13T10:27:37Z</time>
      </trkpt>
      <trkpt lat="48.7587" lon="2.21378">
        <ele>152.03</ele>
        <time>2012-05-13T10:27:51Z</time>
      </trkpt>
      <trkpt lat="48.75871" lon="2.21399">
        <ele>151.06</ele>
        <time>2012-05-13T10:28:06Z</time>
      </trkpt>
      <trkpt lat="48.75869" lon="2.21439">
        <ele>149.14</ele>
        <time>2012-05-13T10:28:23Z</time>
      </trkpt>
      <trkpt lat="48.75863" lon="2.21456">
        <ele>146.74</ele>
        <time>2012-05-13T10:28:38Z</time>
      </trkpt>
      <trkpt lat="48.75855" lon="2.21459">
        <ele>144.34</ele>
        <time>2012-05-13T10:28:57Z</time>
      </trkpt>
      <trkpt lat="48.75837" lon="2.21457">
        <ele>140.97</ele>
        <time>2012-05-13T10:29:12Z</time>
      </trkpt>
      <trkpt lat="48.75827" lon="2.21457">
        <ele>137.61</ele>
        <time>2012-05-13T10:29:25Z</time>
      </trkpt>
      <trkpt lat="48.75824" lon="2.21457">
        <ele>133.28</ele>
        <time>2012-05-13T10:29:30Z</time>
      </trkpt>
      <trkpt lat="48.75824" lon="2.21458">
        <ele>133.28</ele>
        <time>2012-05-13T10:29:31Z</time>
      </trkpt>
      <trkpt lat="48.75816" lon="2.21458">
        <ele>131.36</ele>
        <time>2012-05-13T10:29:38Z</time>
      </trkpt>
      <trkpt lat="48.75798" lon="2.21454">
        <ele>131.36</ele>
        <time>2012-05-13T10:29:53Z</time>
      </trkpt>
      <trkpt lat="48.75791" lon="2.21471">
        <ele>130.4</ele>
        <time>2012-05-13T10:30:12Z</time>
      </trkpt>
      <trkpt lat="48.75787" lon="2.21482">
        <ele>127.03</ele>
        <time>2012-05-13T10:30:31Z</time>
      </trkpt>
      <trkpt lat="48.75778" lon="2.21497">
        <ele>123.67</ele>
        <time>2012-05-13T10:30:48Z</time>
      </trkpt>
      <trkpt lat="48.75773" lon="2.21504">
        <ele>122.22</ele>
        <time>2012-05-13T10:30:57Z</time>
      </trkpt>
      <trkpt lat="48.75759" lon="2.21531">
        <ele>118.86</ele>
        <time>2012-05-13T10:31:16Z</time>
      </trkpt>
      <trkpt lat="48.75746" lon="2.21559">
        <ele>115.5</ele>
        <time>2012-05-13T10:31:35Z</time>
      </trkpt>
      <trkpt lat="48.75733" lon="2.21583">
        <ele>113.09</ele>
        <time>2012-05-13T10:31:54Z</time>
      </trkpt>
      <trkpt lat="48.75724" lon="2.21604">
        <ele>111.17</ele>
        <time>2012-05-13T10:32:08Z</time>
      </trkpt>
      <trkpt lat="48.75715" lon="2.21603">
        <ele>110.21</ele>
        <time>2012-05-13T10:32:16Z</time>
      </trkpt>
      <trkpt lat="48.75699" lon="2.21578">
        <ele>109.73</ele>
        <time>2012-05-13T10:32:36Z</time>
      </trkpt>
      <trkpt lat="48.75679" lon="2.21573">
        <ele>109.73</ele>
        <time>2012-05-13T10:32:54Z</time>
      </trkpt>
      <trkpt lat="48.75678" lon="2.21575">
        <ele>109.73</ele>
        <time>2012-05-13T10:32:55Z</time>
      </trkpt>
      <trkpt lat="48.75657" lon="2.21608">
        <ele>107.32</ele>
        <time>2012-05-13T10:33:18Z</time>
      </trkpt>
      <trkpt lat="48.75638" lon="2.21635">
        <ele>104.92</ele>
        <time>2012-05-13T10:33:38Z</time>
      </trkpt>
      <trkpt lat="48.75636" lon="2.21641">
        <ele>104.44</ele>
        <time>2012-05-13T10:33:42Z</time>
      </trkpt>
      <trkpt lat="48.75619" lon="2.21664">
        <ele>102.52</ele>
        <time>2012-05-13T10:33:59Z</time>
      </trkpt>
      <trkpt lat="48.75603" lon="2.21687">
        <ele>100.6</ele>
        <time>2012-05-13T10:34:16Z</time>
      </trkpt>
      <trkpt lat="48.75593" lon="2.2171">
        <ele>98.67</ele>
        <time>2012-05-13T10:34:31Z</time>
      </trkpt>
      <trkpt lat="48.75591" lon="2.21712">
        <ele>98.67</ele>
        <time>2012-05-13T10:34:33Z</time>
      </trkpt>
      <trkpt lat="48.75589" lon="2.2173">
        <ele>97.23</ele>
        <time>2012-05-13T10:34:48Z</time>
      </trkpt>
      <trkpt lat="48.75589" lon="2.21732">
        <ele>97.23</ele>
        <time>2012-05-13T10:34:49Z</time>
      </trkpt>
      <trkpt lat="48.75597" lon="2.21756">
        <ele>96.27</ele>
        <time>2012-05-13T10:35:04Z</time>
      </trkpt>
      <trkpt lat="48.75611" lon="2.21772">
        <ele>95.79</ele>
        <time>2012-05-13T10:35:18Z</time>
      </trkpt>
      <trkpt lat="48.75627" lon="2.21792">
        <ele>95.79</ele>
        <time>2012-05-13T10:35:35Z</time>
      </trkpt>
      <trkpt lat="48.75629" lon="2.21796">
        <ele>95.31</ele>
        <time>2012-05-13T10:35:38Z</time>
      </trkpt>
      <trkpt lat="48.75626" lon="2.21817">
        <ele>94.83</ele>
        <time>2012-05-13T10:35:53Z</time>
      </trkpt>
      <trkpt lat="48.7562" lon="2.21828">
        <ele>94.35</ele>
        <time>2012-05-13T10:36:01Z</time>
      </trkpt>
      <trkpt lat="48.75614" lon="2.21839">
        <ele>93.87</ele>
        <time>2012-05-13T10:36:08Z</time>
      </trkpt>
      <trkpt lat="48.75609" lon="2.21849">
        <ele>93.39</ele>
        <time>2012-05-13T10:36:14Z</time>
      </trkpt>
      <trkpt lat="48.75607" lon="2.21864">
        <ele>92.42</ele>
        <time>2012-05-13T10:36:24Z</time>
      </trkpt>
      <trkpt lat="48.75607" lon="2.21871">
        <ele>91.46</ele>
        <time>2012-05-13T10:36:28Z</time>
      </trkpt>
      <trkpt lat="48.75596" lon="2.21903">
        <ele>90.98</ele>
        <time>2012-05-13T10:36:45Z</time>
      </trkpt>
      <trkpt lat="48.75589" lon="2.21933">
        <ele>88.58</ele>
        <time>2012-05-13T10:37:02Z</time>
      </trkpt>
      <trkpt lat="48.75578" lon="2.21952">
        <ele>88.1</ele>
        <time>2012-05-13T10:37:16Z</time>
      </trkpt>
      <trkpt lat="48.75569" lon="2.21979">
        <ele>86.66</ele>
        <time>2012-05-13T10:37:31Z</time>
      </trkpt>
      <trkpt lat="48.75562" lon="2.22008">
        <ele>84.73</ele>
        <time>2012-05-13T10:37:47Z</time>
      </trkpt>
      <trkpt lat="48.75555" lon="2.22036">
        <ele>82.81</ele>
        <time>2012-05-13T10:38:01Z</time>
      </trkpt>
      <trkpt lat="48.75554" lon="2.22037">
        <ele>82.81</ele>
        <time>2012-05-13T10:38:02Z</time>
      </trkpt>
      <trkpt lat="48.75551" lon="2.22069">
        <ele>81.85</ele>
        <time>2012-05-13T10:38:18Z</time>
      </trkpt>
      <trkpt lat="48.75551" lon="2.22079">
        <ele>81.37</ele>
        <time>2012-05-13T10:38:25Z</time>
      </trkpt>
      <trkpt lat="48.75551" lon="2.22084">
        <ele>81.37</ele>
        <time>2012-05-13T10:38:27Z</time>
      </trkpt>
      <trkpt lat="48.75554" lon="2.22114">
        <ele>80.89</ele>
        <time>2012-05-13T10:38:43Z</time>
      </trkpt>
      <trkpt lat="48.75555" lon="2.22115">
        <ele>80.89</ele>
        <time>2012-05-13T10:38:44Z</time>
      </trkpt>
      <trkpt lat="48.75558" lon="2.22137">
        <ele>79.93</ele>
        <time>2012-05-13T10:38:57Z</time>
      </trkpt>
      <trkpt lat="48.75562" lon="2.22167">
        <ele>78.97</ele>
        <time>2012-05-13T10:39:12Z</time>
      </trkpt>
      <trkpt lat="48.75555" lon="2.22195">
        <ele>78.48</ele>
        <time>2012-05-13T10:39:29Z</time>
      </trkpt>
      <trkpt lat="48.75549" lon="2.22206">
        <ele>78</ele>
        <time>2012-05-13T10:39:36Z</time>
      </trkpt>
      <trkpt lat="48.75543" lon="2.22203">
        <ele>78</ele>
        <time>2012-05-13T10:39:43Z</time>
      </trkpt>
      <trkpt lat="48.75534" lon="2.22188">
        <ele>77.04</ele>
        <time>2012-05-13T10:39:56Z</time>
      </trkpt>
      <trkpt lat="48.75522" lon="2.22169">
        <ele>76.56</ele>
        <time>2012-05-13T10:40:09Z</time>
      </trkpt>
      <trkpt lat="48.75512" lon="2.22156">
        <ele>76.56</ele>
        <time>2012-05-13T10:40:22Z</time>
      </trkpt>
      <trkpt lat="48.75494" lon="2.2213">
        <ele>76.56</ele>
        <time>2012-05-13T10:40:36Z</time>
      </trkpt>
      <trkpt lat="48.75487" lon="2.22123">
        <ele>76.56</ele>
        <time>2012-05-13T10:40:41Z</time>
      </trkpt>
      <trkpt lat="48.75483" lon="2.22118">
        <ele>76.56</ele>
        <time>2012-05-13T10:40:46Z</time>
      </trkpt>
      <trkpt lat="48.75481" lon="2.22116">
        <ele>76.56</ele>
        <time>2012-05-13T10:40:48Z</time>
      </trkpt>
      <trkpt lat="48.75477" lon="2.22111">
        <ele>76.56</ele>
        <time>2012-05-13T10:40:52Z</time>
      </trkpt>
      <trkpt lat="48.75458" lon="2.22096">
        <ele>76.56</ele>
        <time>2012-05-13T10:41:08Z</time>
      </trkpt>
      <trkpt lat="48.75451" lon="2.22095">
        <ele>76.56</ele>
        <time>2012-05-13T10:41:13Z</time>
      </trkpt>
      <trkpt lat="48.75435" lon="2.22096">
        <ele>76.56</ele>
        <time>2012-05-13T10:41:25Z</time>
      </trkpt>
      <trkpt lat="48.75431" lon="2.22107">
        <ele>76.08</ele>
        <time>2012-05-13T10:41:37Z</time>
      </trkpt>
      <trkpt lat="48.7543" lon="2.22134">
        <ele>75.6</ele>
        <time>2012-05-13T10:41:52Z</time>
      </trkpt>
      <trkpt lat="48.75428" lon="2.2216">
        <ele>76.08</ele>
        <time>2012-05-13T10:42:04Z</time>
      </trkpt>
      <trkpt lat="48.75429" lon="2.22183">
        <ele>76.08</ele>
        <time>2012-05-13T10:42:18Z</time>
      </trkpt>
      <trkpt lat="48.75441" lon="2.22208">
        <ele>76.08</ele>
        <time>2012-05-13T10:42:35Z</time>
      </trkpt>
      <trkpt lat="48.75453" lon="2.22232">
        <ele>77.04</ele>
        <time>2012-05-13T10:42:52Z</time>
      </trkpt>
      <trkpt lat="48.75455" lon="2.22241">
        <ele>77.04</ele>
        <time>2012-05-13T10:42:58Z</time>
      </trkpt>
      <trkpt lat="48.75459" lon="2.22249">
        <ele>78.48</ele>
        <time>2012-05-13T10:43:13Z</time>
      </trkpt>
    </trkseg>
  </trk>
</gpx>